﻿<?xml version="1.0" encoding="utf-8" standalone="yes"?>
<gpx version="1.0" creator="CanWay - http://www.canwaygps.com" xmlns:xsi="http://www.w3.org/2001/XMLSchema-instance" xmlns="http://www.topografix.com/GPX/1/0" xsi:schemaLocation="http://www.topografix.com/GPX/1/0 http://www.topografix.com/GPX/1/0/gpx.xsd">
<time>2026-04-03T16:08:32Z</time>
<bounds minlat="35.862290" minlon="139.693032" maxlat="35.907743" maxlon="139.725586" />
<trk>
<name>2026-04-03 06-20</name>
<trkseg>
<trkpt lat="35.862294" lon="139.713772">
<ele>10.4</ele>
<time>2026-04-02T21:20:26Z</time>
<speed>0.0</speed>
</trkpt>
<trkpt lat="35.862293" lon="139.713725">
<ele>10.0</ele>
<time>2026-04-02T21:24:25Z</time>
<speed>2.0</speed>
</trkpt>
<trkpt lat="35.862293" lon="139.713686">
<ele>9.8</ele>
<time>2026-04-02T21:24:26Z</time>
<speed>1.5</speed>
</trkpt>
<trkpt lat="35.862290" lon="139.713647">
<ele>9.8</ele>
<time>2026-04-02T21:24:27Z</time>
<speed>1.5</speed>
</trkpt>
<trkpt lat="35.862290" lon="139.713610">
<ele>9.8</ele>
<time>2026-04-02T21:24:30Z</time>
<speed>1.6</speed>
</trkpt>
<trkpt lat="35.862325" lon="139.713605">
<ele>9.8</ele>
<time>2026-04-02T21:24:32Z</time>
<speed>2.6</speed>
</trkpt>
<trkpt lat="35.862348" lon="139.713608">
<ele>9.8</ele>
<time>2026-04-02T21:24:33Z</time>
<speed>2.4</speed>
</trkpt>
<trkpt lat="35.862413" lon="139.713619">
<ele>9.8</ele>
<time>2026-04-02T21:24:36Z</time>
<speed>2.8</speed>
</trkpt>
<trkpt lat="35.862463" lon="139.713631">
<ele>9.8</ele>
<time>2026-04-02T21:24:38Z</time>
<speed>3.0</speed>
</trkpt>
<trkpt lat="35.862489" lon="139.713639">
<ele>9.8</ele>
<time>2026-04-02T21:24:39Z</time>
<speed>2.9</speed>
</trkpt>
<trkpt lat="35.862637" lon="139.713626">
<ele>9.4</ele>
<time>2026-04-02T21:24:45Z</time>
<speed>1.9</speed>
</trkpt>
<trkpt lat="35.862635" lon="139.713593">
<ele>9.2</ele>
<time>2026-04-02T21:24:46Z</time>
<speed>2.9</speed>
</trkpt>
<trkpt lat="35.862615" lon="139.713487">
<ele>8.6</ele>
<time>2026-04-02T21:24:50Z</time>
<speed>3.9</speed>
</trkpt>
<trkpt lat="35.862613" lon="139.713403">
<ele>8.4</ele>
<time>2026-04-02T21:24:51Z</time>
<speed>3.9</speed>
</trkpt>
<trkpt lat="35.862606" lon="139.713347">
<ele>8.4</ele>
<time>2026-04-02T21:24:52Z</time>
<speed>3.7</speed>
</trkpt>
<trkpt lat="35.862597" lon="139.713278">
<ele>8.0</ele>
<time>2026-04-02T21:24:54Z</time>
<speed>3.9</speed>
</trkpt>
<trkpt lat="35.862585" lon="139.713175">
<ele>7.6</ele>
<time>2026-04-02T21:24:56Z</time>
<speed>4.1</speed>
</trkpt>
<trkpt lat="35.862573" lon="139.713053">
<ele>7.4</ele>
<time>2026-04-02T21:24:59Z</time>
<speed>4.4</speed>
</trkpt>
<trkpt lat="35.862547" lon="139.712858">
<ele>7.2</ele>
<time>2026-04-02T21:25:02Z</time>
<speed>4.4</speed>
</trkpt>
<trkpt lat="35.862517" lon="139.712610">
<ele>7.2</ele>
<time>2026-04-02T21:25:08Z</time>
<speed>4.7</speed>
</trkpt>
<trkpt lat="35.862447" lon="139.712016">
<ele>7.4</ele>
<time>2026-04-02T21:25:19Z</time>
<speed>4.7</speed>
</trkpt>
<trkpt lat="35.862399" lon="139.711611">
<ele>7.2</ele>
<time>2026-04-02T21:25:28Z</time>
<speed>4.4</speed>
</trkpt>
<trkpt lat="35.862365" lon="139.711343">
<ele>7.2</ele>
<time>2026-04-02T21:25:34Z</time>
<speed>4.5</speed>
</trkpt>
<trkpt lat="35.862345" lon="139.711055">
<ele>7.2</ele>
<time>2026-04-02T21:25:42Z</time>
<speed>4.8</speed>
</trkpt>
<trkpt lat="35.862350" lon="139.710644">
<ele>7.4</ele>
<time>2026-04-02T21:25:48Z</time>
<speed>5.0</speed>
</trkpt>
<trkpt lat="35.862318" lon="139.710465">
<ele>7.4</ele>
<time>2026-04-02T21:25:50Z</time>
<speed>4.6</speed>
</trkpt>
<trkpt lat="35.862307" lon="139.710052">
<ele>7.6</ele>
<time>2026-04-02T21:25:57Z</time>
<speed>4.3</speed>
</trkpt>
<trkpt lat="35.862313" lon="139.709852">
<ele>7.8</ele>
<time>2026-04-02T21:26:06Z</time>
<speed>4.2</speed>
</trkpt>
<trkpt lat="35.862387" lon="139.709575">
<ele>7.8</ele>
<time>2026-04-02T21:26:08Z</time>
<speed>4.2</speed>
</trkpt>
<trkpt lat="35.862455" lon="139.709417">
<ele>8.0</ele>
<time>2026-04-02T21:26:12Z</time>
<speed>4.1</speed>
</trkpt>
<trkpt lat="35.862529" lon="139.709278">
<ele>8.2</ele>
<time>2026-04-02T21:26:15Z</time>
<speed>4.2</speed>
</trkpt>
<trkpt lat="35.862597" lon="139.709160">
<ele>8.2</ele>
<time>2026-04-02T21:26:18Z</time>
<speed>4.4</speed>
</trkpt>
<trkpt lat="35.862685" lon="139.709022">
<ele>8.4</ele>
<time>2026-04-02T21:26:21Z</time>
<speed>4.7</speed>
</trkpt>
<trkpt lat="35.862736" lon="139.708940">
<ele>8.4</ele>
<time>2026-04-02T21:26:25Z</time>
<speed>4.6</speed>
</trkpt>
<trkpt lat="35.862912" lon="139.708694">
<ele>8.4</ele>
<time>2026-04-02T21:26:32Z</time>
<speed>4.8</speed>
</trkpt>
<trkpt lat="35.863013" lon="139.708575">
<ele>8.4</ele>
<time>2026-04-02T21:26:34Z</time>
<speed>4.6</speed>
</trkpt>
<trkpt lat="35.863094" lon="139.708453">
<ele>8.4</ele>
<time>2026-04-02T21:26:38Z</time>
<speed>4.1</speed>
</trkpt>
<trkpt lat="35.863201" lon="139.708280">
<ele>8.4</ele>
<time>2026-04-02T21:26:43Z</time>
<speed>4.3</speed>
</trkpt>
<trkpt lat="35.863386" lon="139.707992">
<ele>8.4</ele>
<time>2026-04-02T21:26:50Z</time>
<speed>3.9</speed>
</trkpt>
<trkpt lat="35.863482" lon="139.707817">
<ele>8.4</ele>
<time>2026-04-02T21:26:57Z</time>
<speed>4.0</speed>
</trkpt>
<trkpt lat="35.863502" lon="139.707671">
<ele>8.6</ele>
<time>2026-04-02T21:27:03Z</time>
<speed>3.8</speed>
</trkpt>
<trkpt lat="35.863463" lon="139.707416">
<ele>8.6</ele>
<time>2026-04-02T21:27:09Z</time>
<speed>3.5</speed>
</trkpt>
<trkpt lat="35.863335" lon="139.706975">
<ele>8.8</ele>
<time>2026-04-02T21:27:15Z</time>
<speed>0.1</speed>
</trkpt>
<trkpt lat="35.863402" lon="139.706931">
<ele>8.8</ele>
<time>2026-04-02T21:28:11Z</time>
<speed>2.1</speed>
</trkpt>
<trkpt lat="35.863586" lon="139.706897">
<ele>9.0</ele>
<time>2026-04-02T21:28:18Z</time>
<speed>2.7</speed>
</trkpt>
<trkpt lat="35.863799" lon="139.706872">
<ele>9.2</ele>
<time>2026-04-02T21:28:25Z</time>
<speed>3.6</speed>
</trkpt>
<trkpt lat="35.864000" lon="139.706845">
<ele>9.2</ele>
<time>2026-04-02T21:28:33Z</time>
<speed>3.5</speed>
</trkpt>
<trkpt lat="35.864113" lon="139.706842">
<ele>9.4</ele>
<time>2026-04-02T21:28:38Z</time>
<speed>3.7</speed>
</trkpt>
<trkpt lat="35.864220" lon="139.706834">
<ele>9.6</ele>
<time>2026-04-02T21:28:39Z</time>
<speed>3.7</speed>
</trkpt>
<trkpt lat="35.864400" lon="139.706845">
<ele>9.8</ele>
<time>2026-04-02T21:28:46Z</time>
<speed>3.9</speed>
</trkpt>
<trkpt lat="35.864541" lon="139.706869">
<ele>10.0</ele>
<time>2026-04-02T21:28:51Z</time>
<speed>4.2</speed>
</trkpt>
<trkpt lat="35.864713" lon="139.707006">
<ele>10.0</ele>
<time>2026-04-02T21:28:56Z</time>
<speed>4.3</speed>
</trkpt>
<trkpt lat="35.864843" lon="139.707124">
<ele>10.0</ele>
<time>2026-04-02T21:28:58Z</time>
<speed>4.3</speed>
</trkpt>
<trkpt lat="35.864959" lon="139.707288">
<ele>9.8</ele>
<time>2026-04-02T21:29:04Z</time>
<speed>3.6</speed>
</trkpt>
<trkpt lat="35.865104" lon="139.707545">
<ele>9.6</ele>
<time>2026-04-02T21:29:12Z</time>
<speed>3.3</speed>
</trkpt>
<trkpt lat="35.865270" lon="139.707697">
<ele>9.6</ele>
<time>2026-04-02T21:29:19Z</time>
<speed>3.6</speed>
</trkpt>
<trkpt lat="35.865506" lon="139.707765">
<ele>9.0</ele>
<time>2026-04-02T21:29:27Z</time>
<speed>4.5</speed>
</trkpt>
<trkpt lat="35.865626" lon="139.707749">
<ele>8.8</ele>
<time>2026-04-02T21:29:31Z</time>
<speed>4.0</speed>
</trkpt>
<trkpt lat="35.865713" lon="139.707738">
<ele>8.8</ele>
<time>2026-04-02T21:29:32Z</time>
<speed>4.0</speed>
</trkpt>
<trkpt lat="35.865848" lon="139.707730">
<ele>8.8</ele>
<time>2026-04-02T21:29:36Z</time>
<speed>4.1</speed>
</trkpt>
<trkpt lat="35.866104" lon="139.707701">
<ele>9.6</ele>
<time>2026-04-02T21:29:41Z</time>
<speed>4.5</speed>
</trkpt>
<trkpt lat="35.866267" lon="139.707636">
<ele>9.8</ele>
<time>2026-04-02T21:29:47Z</time>
<speed>4.3</speed>
</trkpt>
<trkpt lat="35.866528" lon="139.707462">
<ele>10.0</ele>
<time>2026-04-02T21:29:55Z</time>
<speed>4.1</speed>
</trkpt>
<trkpt lat="35.866921" lon="139.707231">
<ele>10.0</ele>
<time>2026-04-02T21:30:04Z</time>
<speed>4.3</speed>
</trkpt>
<trkpt lat="35.867167" lon="139.707137">
<ele>10.0</ele>
<time>2026-04-02T21:30:13Z</time>
<speed>4.6</speed>
</trkpt>
<trkpt lat="35.867428" lon="139.707035">
<ele>10.0</ele>
<time>2026-04-02T21:30:21Z</time>
<speed>4.5</speed>
</trkpt>
<trkpt lat="35.867563" lon="139.707019">
<ele>10.0</ele>
<time>2026-04-02T21:30:28Z</time>
<speed>4.3</speed>
</trkpt>
<trkpt lat="35.867841" lon="139.706907">
<ele>10.2</ele>
<time>2026-04-02T21:30:34Z</time>
<speed>4.4</speed>
</trkpt>
<trkpt lat="35.868229" lon="139.707015">
<ele>10.2</ele>
<time>2026-04-02T21:30:40Z</time>
<speed>4.4</speed>
</trkpt>
<trkpt lat="35.868456" lon="139.707081">
<ele>10.2</ele>
<time>2026-04-02T21:30:46Z</time>
<speed>4.1</speed>
</trkpt>
<trkpt lat="35.868626" lon="139.707135">
<ele>10.0</ele>
<time>2026-04-02T21:30:52Z</time>
<speed>4.0</speed>
</trkpt>
<trkpt lat="35.868698" lon="139.707203">
<ele>10.0</ele>
<time>2026-04-02T21:30:53Z</time>
<speed>3.5</speed>
</trkpt>
<trkpt lat="35.868726" lon="139.707274">
<ele>10.0</ele>
<time>2026-04-02T21:30:58Z</time>
<speed>4.1</speed>
</trkpt>
<trkpt lat="35.868730" lon="139.707631">
<ele>10.0</ele>
<time>2026-04-02T21:31:04Z</time>
<speed>4.5</speed>
</trkpt>
<trkpt lat="35.868715" lon="139.707813">
<ele>10.0</ele>
<time>2026-04-02T21:31:08Z</time>
<speed>4.1</speed>
</trkpt>
<trkpt lat="35.868678" lon="139.708068">
<ele>10.0</ele>
<time>2026-04-02T21:31:13Z</time>
<speed>4.3</speed>
</trkpt>
<trkpt lat="35.868641" lon="139.708347">
<ele>9.8</ele>
<time>2026-04-02T21:31:21Z</time>
<speed>3.8</speed>
</trkpt>
<trkpt lat="35.868649" lon="139.708495">
<ele>9.8</ele>
<time>2026-04-02T21:31:22Z</time>
<speed>3.9</speed>
</trkpt>
<trkpt lat="35.868676" lon="139.708634">
<ele>9.8</ele>
<time>2026-04-02T21:31:25Z</time>
<speed>4.3</speed>
</trkpt>
<trkpt lat="35.868697" lon="139.708784">
<ele>9.8</ele>
<time>2026-04-02T21:31:29Z</time>
<speed>4.2</speed>
</trkpt>
<trkpt lat="35.868723" lon="139.708883">
<ele>9.8</ele>
<time>2026-04-02T21:31:31Z</time>
<speed>4.1</speed>
</trkpt>
<trkpt lat="35.868776" lon="139.709036">
<ele>9.8</ele>
<time>2026-04-02T21:31:34Z</time>
<speed>4.2</speed>
</trkpt>
<trkpt lat="35.868882" lon="139.709353">
<ele>9.8</ele>
<time>2026-04-02T21:31:36Z</time>
<speed>4.2</speed>
</trkpt>
<trkpt lat="35.868991" lon="139.709484">
<ele>10.0</ele>
<time>2026-04-02T21:31:44Z</time>
<speed>3.9</speed>
</trkpt>
<trkpt lat="35.869110" lon="139.709495">
<ele>10.0</ele>
<time>2026-04-02T21:31:48Z</time>
<speed>4.2</speed>
</trkpt>
<trkpt lat="35.869325" lon="139.709396">
<ele>10.0</ele>
<time>2026-04-02T21:31:54Z</time>
<speed>4.2</speed>
</trkpt>
<trkpt lat="35.869569" lon="139.709283">
<ele>10.2</ele>
<time>2026-04-02T21:32:03Z</time>
<speed>4.3</speed>
</trkpt>
<trkpt lat="35.869860" lon="139.709034">
<ele>10.2</ele>
<time>2026-04-02T21:32:10Z</time>
<speed>4.7</speed>
</trkpt>
<trkpt lat="35.870061" lon="139.708864">
<ele>10.2</ele>
<time>2026-04-02T21:32:16Z</time>
<speed>4.5</speed>
</trkpt>
<trkpt lat="35.870334" lon="139.708648">
<ele>10.2</ele>
<time>2026-04-02T21:32:24Z</time>
<speed>4.6</speed>
</trkpt>
<trkpt lat="35.870625" lon="139.708430">
<ele>10.2</ele>
<time>2026-04-02T21:32:32Z</time>
<speed>4.4</speed>
</trkpt>
<trkpt lat="35.870888" lon="139.708264">
<ele>10.2</ele>
<time>2026-04-02T21:32:39Z</time>
<speed>4.5</speed>
</trkpt>
<trkpt lat="35.871277" lon="139.708055">
<ele>10.4</ele>
<time>2026-04-02T21:32:46Z</time>
<speed>4.4</speed>
</trkpt>
<trkpt lat="35.871582" lon="139.707886">
<ele>10.2</ele>
<time>2026-04-02T21:32:56Z</time>
<speed>4.2</speed>
</trkpt>
<trkpt lat="35.871836" lon="139.707727">
<ele>10.2</ele>
<time>2026-04-02T21:33:05Z</time>
<speed>3.7</speed>
</trkpt>
<trkpt lat="35.871955" lon="139.707650">
<ele>10.2</ele>
<time>2026-04-02T21:33:09Z</time>
<speed>3.9</speed>
</trkpt>
<trkpt lat="35.872060" lon="139.707580">
<ele>10.0</ele>
<time>2026-04-02T21:33:12Z</time>
<speed>3.5</speed>
</trkpt>
<trkpt lat="35.872090" lon="139.707575">
<ele>10.0</ele>
<time>2026-04-02T21:33:15Z</time>
<speed>2.5</speed>
</trkpt>
<trkpt lat="35.872103" lon="139.707556">
<ele>10.0</ele>
<time>2026-04-02T21:33:16Z</time>
<speed>1.7</speed>
</trkpt>
<trkpt lat="35.872107" lon="139.707538">
<ele>10.0</ele>
<time>2026-04-02T21:33:17Z</time>
<speed>0.0</speed>
</trkpt>
<trkpt lat="35.872126" lon="139.707549">
<ele>9.2</ele>
<time>2026-04-02T21:34:29Z</time>
<speed>2.0</speed>
</trkpt>
<trkpt lat="35.872144" lon="139.707551">
<ele>9.2</ele>
<time>2026-04-02T21:34:30Z</time>
<speed>3.5</speed>
</trkpt>
<trkpt lat="35.872234" lon="139.707507">
<ele>9.2</ele>
<time>2026-04-02T21:34:33Z</time>
<speed>5.2</speed>
</trkpt>
<trkpt lat="35.872451" lon="139.707486">
<ele>9.2</ele>
<time>2026-04-02T21:34:39Z</time>
<speed>4.6</speed>
</trkpt>
<trkpt lat="35.872794" lon="139.707491">
<ele>9.6</ele>
<time>2026-04-02T21:34:46Z</time>
<speed>4.6</speed>
</trkpt>
<trkpt lat="35.873129" lon="139.707465">
<ele>9.6</ele>
<time>2026-04-02T21:34:54Z</time>
<speed>4.6</speed>
</trkpt>
<trkpt lat="35.873544" lon="139.707489">
<ele>9.6</ele>
<time>2026-04-02T21:35:02Z</time>
<speed>4.8</speed>
</trkpt>
<trkpt lat="35.873657" lon="139.707516">
<ele>9.4</ele>
<time>2026-04-02T21:35:06Z</time>
<speed>4.7</speed>
</trkpt>
<trkpt lat="35.873788" lon="139.707524">
<ele>9.4</ele>
<time>2026-04-02T21:35:07Z</time>
<speed>4.7</speed>
</trkpt>
<trkpt lat="35.874079" lon="139.707575">
<ele>9.4</ele>
<time>2026-04-02T21:35:16Z</time>
<speed>4.8</speed>
</trkpt>
<trkpt lat="35.874281" lon="139.707623">
<ele>9.4</ele>
<time>2026-04-02T21:35:20Z</time>
<speed>4.7</speed>
</trkpt>
<trkpt lat="35.874431" lon="139.707639">
<ele>9.4</ele>
<time>2026-04-02T21:35:23Z</time>
<speed>4.9</speed>
</trkpt>
<trkpt lat="35.874561" lon="139.707639">
<ele>9.4</ele>
<time>2026-04-02T21:35:26Z</time>
<speed>4.9</speed>
</trkpt>
<trkpt lat="35.874624" lon="139.707644">
<ele>9.6</ele>
<time>2026-04-02T21:35:29Z</time>
<speed>4.5</speed>
</trkpt>
<trkpt lat="35.874703" lon="139.707593">
<ele>9.6</ele>
<time>2026-04-02T21:35:30Z</time>
<speed>4.3</speed>
</trkpt>
<trkpt lat="35.874798" lon="139.707553">
<ele>9.6</ele>
<time>2026-04-02T21:35:35Z</time>
<speed>4.4</speed>
</trkpt>
<trkpt lat="35.874970" lon="139.707424">
<ele>9.6</ele>
<time>2026-04-02T21:35:36Z</time>
<speed>4.8</speed>
</trkpt>
<trkpt lat="35.875089" lon="139.707264">
<ele>9.6</ele>
<time>2026-04-02T21:35:43Z</time>
<speed>4.7</speed>
</trkpt>
<trkpt lat="35.875252" lon="139.706939">
<ele>9.4</ele>
<time>2026-04-02T21:35:50Z</time>
<speed>4.8</speed>
</trkpt>
<trkpt lat="35.875400" lon="139.706614">
<ele>9.2</ele>
<time>2026-04-02T21:35:57Z</time>
<speed>4.3</speed>
</trkpt>
<trkpt lat="35.875462" lon="139.706350">
<ele>9.2</ele>
<time>2026-04-02T21:36:03Z</time>
<speed>3.9</speed>
</trkpt>
<trkpt lat="35.875493" lon="139.706179">
<ele>9.2</ele>
<time>2026-04-02T21:36:07Z</time>
<speed>4.1</speed>
</trkpt>
<trkpt lat="35.875492" lon="139.706011">
<ele>9.0</ele>
<time>2026-04-02T21:36:09Z</time>
<speed>4.2</speed>
</trkpt>
<trkpt lat="35.875483" lon="139.705810">
<ele>9.0</ele>
<time>2026-04-02T21:36:15Z</time>
<speed>4.4</speed>
</trkpt>
<trkpt lat="35.875385" lon="139.705492">
<ele>9.0</ele>
<time>2026-04-02T21:36:22Z</time>
<speed>4.4</speed>
</trkpt>
<trkpt lat="35.875261" lon="139.705239">
<ele>9.0</ele>
<time>2026-04-02T21:36:28Z</time>
<speed>4.7</speed>
</trkpt>
<trkpt lat="35.875051" lon="139.704915">
<ele>9.0</ele>
<time>2026-04-02T21:36:36Z</time>
<speed>4.3</speed>
</trkpt>
<trkpt lat="35.874955" lon="139.704731">
<ele>8.8</ele>
<time>2026-04-02T21:36:41Z</time>
<speed>4.2</speed>
</trkpt>
<trkpt lat="35.874944" lon="139.704570">
<ele>8.8</ele>
<time>2026-04-02T21:36:45Z</time>
<speed>4.3</speed>
</trkpt>
<trkpt lat="35.875016" lon="139.704418">
<ele>8.8</ele>
<time>2026-04-02T21:36:51Z</time>
<speed>4.3</speed>
</trkpt>
<trkpt lat="35.875181" lon="139.704206">
<ele>8.8</ele>
<time>2026-04-02T21:36:58Z</time>
<speed>1.7</speed>
</trkpt>
<trkpt lat="35.875425" lon="139.704015">
<ele>8.8</ele>
<time>2026-04-02T21:37:03Z</time>
<speed>2.8</speed>
</trkpt>
<trkpt lat="35.875538" lon="139.703950">
<ele>8.8</ele>
<time>2026-04-02T21:37:08Z</time>
<speed>3.9</speed>
</trkpt>
<trkpt lat="35.875740" lon="139.703882">
<ele>8.6</ele>
<time>2026-04-02T21:37:14Z</time>
<speed>4.6</speed>
</trkpt>
<trkpt lat="35.875891" lon="139.703774">
<ele>8.6</ele>
<time>2026-04-02T21:37:19Z</time>
<speed>4.8</speed>
</trkpt>
<trkpt lat="35.876038" lon="139.703693">
<ele>8.4</ele>
<time>2026-04-02T21:37:22Z</time>
<speed>4.6</speed>
</trkpt>
<trkpt lat="35.876218" lon="139.703569">
<ele>8.2</ele>
<time>2026-04-02T21:37:27Z</time>
<speed>4.4</speed>
</trkpt>
<trkpt lat="35.876418" lon="139.703408">
<ele>8.0</ele>
<time>2026-04-02T21:37:33Z</time>
<speed>4.7</speed>
</trkpt>
<trkpt lat="35.876661" lon="139.703117">
<ele>8.0</ele>
<time>2026-04-02T21:37:41Z</time>
<speed>4.7</speed>
</trkpt>
<trkpt lat="35.876796" lon="139.702916">
<ele>8.0</ele>
<time>2026-04-02T21:37:46Z</time>
<speed>4.8</speed>
</trkpt>
<trkpt lat="35.876828" lon="139.702880">
<ele>8.0</ele>
<time>2026-04-02T21:37:47Z</time>
<speed>4.9</speed>
</trkpt>
<trkpt lat="35.876899" lon="139.702817">
<ele>8.0</ele>
<time>2026-04-02T21:37:49Z</time>
<speed>4.8</speed>
</trkpt>
<trkpt lat="35.877061" lon="139.702742">
<ele>8.0</ele>
<time>2026-04-02T21:37:53Z</time>
<speed>4.8</speed>
</trkpt>
<trkpt lat="35.877103" lon="139.702728">
<ele>7.8</ele>
<time>2026-04-02T21:37:54Z</time>
<speed>4.8</speed>
</trkpt>
<trkpt lat="35.877306" lon="139.702631">
<ele>7.8</ele>
<time>2026-04-02T21:37:59Z</time>
<speed>4.7</speed>
</trkpt>
<trkpt lat="35.877590" lon="139.702534">
<ele>7.6</ele>
<time>2026-04-02T21:38:06Z</time>
<speed>4.8</speed>
</trkpt>
<trkpt lat="35.877959" lon="139.702383">
<ele>7.6</ele>
<time>2026-04-02T21:38:15Z</time>
<speed>4.4</speed>
</trkpt>
<trkpt lat="35.878258" lon="139.702246">
<ele>7.4</ele>
<time>2026-04-02T21:38:23Z</time>
<speed>4.6</speed>
</trkpt>
<trkpt lat="35.878481" lon="139.702113">
<ele>7.4</ele>
<time>2026-04-02T21:38:29Z</time>
<speed>4.8</speed>
</trkpt>
<trkpt lat="35.878582" lon="139.702013">
<ele>7.4</ele>
<time>2026-04-02T21:38:32Z</time>
<speed>4.9</speed>
</trkpt>
<trkpt lat="35.878664" lon="139.701887">
<ele>7.4</ele>
<time>2026-04-02T21:38:35Z</time>
<speed>4.4</speed>
</trkpt>
<trkpt lat="35.878686" lon="139.701846">
<ele>7.4</ele>
<time>2026-04-02T21:38:36Z</time>
<speed>4.7</speed>
</trkpt>
<trkpt lat="35.878707" lon="139.701801">
<ele>7.4</ele>
<time>2026-04-02T21:38:37Z</time>
<speed>4.4</speed>
</trkpt>
<trkpt lat="35.878819" lon="139.701544">
<ele>7.2</ele>
<time>2026-04-02T21:38:43Z</time>
<speed>4.2</speed>
</trkpt>
<trkpt lat="35.878892" lon="139.701382">
<ele>7.0</ele>
<time>2026-04-02T21:38:47Z</time>
<speed>2.8</speed>
</trkpt>
<trkpt lat="35.878910" lon="139.701291">
<ele>7.0</ele>
<time>2026-04-02T21:38:50Z</time>
<speed>2.0</speed>
</trkpt>
<trkpt lat="35.878878" lon="139.701261">
<ele>7.0</ele>
<time>2026-04-02T21:38:51Z</time>
<speed>1.5</speed>
</trkpt>
<trkpt lat="35.878849" lon="139.701317">
<ele>7.0</ele>
<time>2026-04-02T21:38:54Z</time>
<speed>1.4</speed>
</trkpt>
<trkpt lat="35.878821" lon="139.701328">
<ele>7.0</ele>
<time>2026-04-02T21:38:58Z</time>
<speed>2.1</speed>
</trkpt>
<trkpt lat="35.878841" lon="139.701216">
<ele>7.0</ele>
<time>2026-04-02T21:39:03Z</time>
<speed>3.1</speed>
</trkpt>
<trkpt lat="35.878873" lon="139.700971">
<ele>8.0</ele>
<time>2026-04-02T21:39:10Z</time>
<speed>3.3</speed>
</trkpt>
<trkpt lat="35.878894" lon="139.700762">
<ele>8.0</ele>
<time>2026-04-02T21:39:16Z</time>
<speed>3.2</speed>
</trkpt>
<trkpt lat="35.878890" lon="139.700510">
<ele>8.0</ele>
<time>2026-04-02T21:39:23Z</time>
<speed>3.1</speed>
</trkpt>
<trkpt lat="35.878803" lon="139.700333">
<ele>8.0</ele>
<time>2026-04-02T21:39:29Z</time>
<speed>3.2</speed>
</trkpt>
<trkpt lat="35.878645" lon="139.700183">
<ele>8.2</ele>
<time>2026-04-02T21:39:36Z</time>
<speed>3.1</speed>
</trkpt>
<trkpt lat="35.878487" lon="139.700115">
<ele>8.4</ele>
<time>2026-04-02T21:39:42Z</time>
<speed>3.4</speed>
</trkpt>
<trkpt lat="35.878458" lon="139.700104">
<ele>8.6</ele>
<time>2026-04-02T21:39:43Z</time>
<speed>3.3</speed>
</trkpt>
<trkpt lat="35.878222" lon="139.700047">
<ele>8.6</ele>
<time>2026-04-02T21:39:51Z</time>
<speed>3.1</speed>
</trkpt>
<trkpt lat="35.878039" lon="139.699974">
<ele>8.6</ele>
<time>2026-04-02T21:39:58Z</time>
<speed>2.9</speed>
</trkpt>
<trkpt lat="35.877919" lon="139.699855">
<ele>8.6</ele>
<time>2026-04-02T21:40:03Z</time>
<speed>3.3</speed>
</trkpt>
<trkpt lat="35.877884" lon="139.699654">
<ele>8.6</ele>
<time>2026-04-02T21:40:08Z</time>
<speed>3.4</speed>
</trkpt>
<trkpt lat="35.877888" lon="139.699452">
<ele>8.6</ele>
<time>2026-04-02T21:40:14Z</time>
<speed>3.4</speed>
</trkpt>
<trkpt lat="35.877941" lon="139.699195">
<ele>8.4</ele>
<time>2026-04-02T21:40:21Z</time>
<speed>3.4</speed>
</trkpt>
<trkpt lat="35.878076" lon="139.698989">
<ele>8.4</ele>
<time>2026-04-02T21:40:28Z</time>
<speed>3.3</speed>
</trkpt>
<trkpt lat="35.878263" lon="139.698757">
<ele>8.0</ele>
<time>2026-04-02T21:40:37Z</time>
<speed>3.0</speed>
</trkpt>
<trkpt lat="35.878398" lon="139.698589">
<ele>8.2</ele>
<time>2026-04-02T21:40:44Z</time>
<speed>3.4</speed>
</trkpt>
<trkpt lat="35.878542" lon="139.698396">
<ele>8.6</ele>
<time>2026-04-02T21:40:51Z</time>
<speed>3.8</speed>
</trkpt>
<trkpt lat="35.878721" lon="139.698277">
<ele>8.4</ele>
<time>2026-04-02T21:40:57Z</time>
<speed>4.0</speed>
</trkpt>
<trkpt lat="35.878965" lon="139.698211">
<ele>8.0</ele>
<time>2026-04-02T21:41:04Z</time>
<speed>3.6</speed>
</trkpt>
<trkpt lat="35.879245" lon="139.698129">
<ele>8.0</ele>
<time>2026-04-02T21:41:13Z</time>
<speed>3.5</speed>
</trkpt>
<trkpt lat="35.879460" lon="139.698064">
<ele>7.8</ele>
<time>2026-04-02T21:41:20Z</time>
<speed>3.4</speed>
</trkpt>
<trkpt lat="35.879636" lon="139.698008">
<ele>7.8</ele>
<time>2026-04-02T21:41:26Z</time>
<speed>3.2</speed>
</trkpt>
<trkpt lat="35.879833" lon="139.697959">
<ele>7.8</ele>
<time>2026-04-02T21:41:33Z</time>
<speed>3.1</speed>
</trkpt>
<trkpt lat="35.879985" lon="139.697871">
<ele>8.0</ele>
<time>2026-04-02T21:41:39Z</time>
<speed>3.9</speed>
</trkpt>
<trkpt lat="35.880138" lon="139.697764">
<ele>8.0</ele>
<time>2026-04-02T21:41:44Z</time>
<speed>3.6</speed>
</trkpt>
<trkpt lat="35.880272" lon="139.697654">
<ele>7.8</ele>
<time>2026-04-02T21:41:49Z</time>
<speed>3.8</speed>
</trkpt>
<trkpt lat="35.880473" lon="139.697500">
<ele>7.8</ele>
<time>2026-04-02T21:41:56Z</time>
<speed>3.9</speed>
</trkpt>
<trkpt lat="35.880681" lon="139.697344">
<ele>7.8</ele>
<time>2026-04-02T21:42:03Z</time>
<speed>3.7</speed>
</trkpt>
<trkpt lat="35.880905" lon="139.697168">
<ele>7.8</ele>
<time>2026-04-02T21:42:11Z</time>
<speed>3.4</speed>
</trkpt>
<trkpt lat="35.881037" lon="139.697077">
<ele>7.6</ele>
<time>2026-04-02T21:42:16Z</time>
<speed>3.4</speed>
</trkpt>
<trkpt lat="35.881171" lon="139.696985">
<ele>7.6</ele>
<time>2026-04-02T21:42:21Z</time>
<speed>4.1</speed>
</trkpt>
<trkpt lat="35.881328" lon="139.696866">
<ele>7.6</ele>
<time>2026-04-02T21:42:26Z</time>
<speed>3.9</speed>
</trkpt>
<trkpt lat="35.881546" lon="139.696721">
<ele>7.6</ele>
<time>2026-04-02T21:42:33Z</time>
<speed>3.2</speed>
</trkpt>
<trkpt lat="35.881698" lon="139.696618">
<ele>7.6</ele>
<time>2026-04-02T21:42:39Z</time>
<speed>3.2</speed>
</trkpt>
<trkpt lat="35.881801" lon="139.696554">
<ele>8.0</ele>
<time>2026-04-02T21:42:43Z</time>
<speed>5.2</speed>
</trkpt>
<trkpt lat="35.882122" lon="139.696477">
<ele>8.0</ele>
<time>2026-04-02T21:42:50Z</time>
<speed>4.1</speed>
</trkpt>
<trkpt lat="35.882379" lon="139.696443">
<ele>7.8</ele>
<time>2026-04-02T21:42:57Z</time>
<speed>3.8</speed>
</trkpt>
<trkpt lat="35.882592" lon="139.696384">
<ele>7.6</ele>
<time>2026-04-02T21:43:03Z</time>
<speed>3.7</speed>
</trkpt>
<trkpt lat="35.882789" lon="139.696323">
<ele>7.6</ele>
<time>2026-04-02T21:43:11Z</time>
<speed>3.6</speed>
</trkpt>
<trkpt lat="35.882991" lon="139.696167">
<ele>7.4</ele>
<time>2026-04-02T21:43:17Z</time>
<speed>4.0</speed>
</trkpt>
<trkpt lat="35.883143" lon="139.695977">
<ele>7.4</ele>
<time>2026-04-02T21:43:23Z</time>
<speed>3.8</speed>
</trkpt>
<trkpt lat="35.883333" lon="139.695652">
<ele>7.4</ele>
<time>2026-04-02T21:43:32Z</time>
<speed>3.2</speed>
</trkpt>
<trkpt lat="35.883437" lon="139.695475">
<ele>7.4</ele>
<time>2026-04-02T21:43:37Z</time>
<speed>3.6</speed>
</trkpt>
<trkpt lat="35.883574" lon="139.695341">
<ele>7.2</ele>
<time>2026-04-02T21:43:44Z</time>
<speed>3.5</speed>
</trkpt>
<trkpt lat="35.883754" lon="139.695177">
<ele>7.2</ele>
<time>2026-04-02T21:43:51Z</time>
<speed>3.8</speed>
</trkpt>
<trkpt lat="35.883896" lon="139.695054">
<ele>7.2</ele>
<time>2026-04-02T21:43:56Z</time>
<speed>3.5</speed>
</trkpt>
<trkpt lat="35.883992" lon="139.694852">
<ele>7.2</ele>
<time>2026-04-02T21:44:02Z</time>
<speed>4.0</speed>
</trkpt>
<trkpt lat="35.884015" lon="139.694719">
<ele>7.6</ele>
<time>2026-04-02T21:44:08Z</time>
<speed>3.8</speed>
</trkpt>
<trkpt lat="35.884026" lon="139.694343">
<ele>7.8</ele>
<time>2026-04-02T21:44:14Z</time>
<speed>4.0</speed>
</trkpt>
<trkpt lat="35.884037" lon="139.693984">
<ele>7.8</ele>
<time>2026-04-02T21:44:20Z</time>
<speed>4.0</speed>
</trkpt>
<trkpt lat="35.884024" lon="139.693552">
<ele>7.6</ele>
<time>2026-04-02T21:44:27Z</time>
<speed>3.8</speed>
</trkpt>
<trkpt lat="35.884069" lon="139.693324">
<ele>7.6</ele>
<time>2026-04-02T21:44:33Z</time>
<speed>4.0</speed>
</trkpt>
<trkpt lat="35.884115" lon="139.693091">
<ele>7.6</ele>
<time>2026-04-02T21:44:39Z</time>
<speed>3.4</speed>
</trkpt>
<trkpt lat="35.884189" lon="139.693034">
<ele>7.6</ele>
<time>2026-04-02T21:44:44Z</time>
<speed>3.2</speed>
</trkpt>
<trkpt lat="35.884369" lon="139.693037">
<ele>7.4</ele>
<time>2026-04-02T21:44:49Z</time>
<speed>3.2</speed>
</trkpt>
<trkpt lat="35.884461" lon="139.693042">
<ele>7.4</ele>
<time>2026-04-02T21:44:54Z</time>
<speed>3.2</speed>
</trkpt>
<trkpt lat="35.884691" lon="139.693056">
<ele>7.2</ele>
<time>2026-04-02T21:45:01Z</time>
<speed>3.7</speed>
</trkpt>
<trkpt lat="35.884834" lon="139.693066">
<ele>7.2</ele>
<time>2026-04-02T21:45:07Z</time>
<speed>3.6</speed>
</trkpt>
<trkpt lat="35.885026" lon="139.693072">
<ele>7.2</ele>
<time>2026-04-02T21:45:13Z</time>
<speed>3.8</speed>
</trkpt>
<trkpt lat="35.885310" lon="139.693096">
<ele>7.2</ele>
<time>2026-04-02T21:45:21Z</time>
<speed>2.8</speed>
</trkpt>
<trkpt lat="35.885504" lon="139.693109">
<ele>7.2</ele>
<time>2026-04-02T21:45:27Z</time>
<speed>2.6</speed>
</trkpt>
<trkpt lat="35.885621" lon="139.693125">
<ele>7.2</ele>
<time>2026-04-02T21:45:32Z</time>
<speed>2.8</speed>
</trkpt>
<trkpt lat="35.885628" lon="139.693254">
<ele>7.2</ele>
<time>2026-04-02T21:45:33Z</time>
<speed>3.5</speed>
</trkpt>
<trkpt lat="35.885647" lon="139.693439">
<ele>7.2</ele>
<time>2026-04-02T21:45:36Z</time>
<speed>3.2</speed>
</trkpt>
<trkpt lat="35.885670" lon="139.693601">
<ele>7.2</ele>
<time>2026-04-02T21:45:43Z</time>
<speed>0.0</speed>
</trkpt>
<trkpt lat="35.885681" lon="139.693553">
<ele>5.8</ele>
<time>2026-04-02T21:47:18Z</time>
<speed>3.5</speed>
</trkpt>
<trkpt lat="35.885674" lon="139.693515">
<ele>5.8</ele>
<time>2026-04-02T21:47:19Z</time>
<speed>4.2</speed>
</trkpt>
<trkpt lat="35.885664" lon="139.693423">
<ele>5.8</ele>
<time>2026-04-02T21:47:21Z</time>
<speed>3.8</speed>
</trkpt>
<trkpt lat="35.885643" lon="139.693212">
<ele>5.8</ele>
<time>2026-04-02T21:47:26Z</time>
<speed>2.1</speed>
</trkpt>
<trkpt lat="35.885634" lon="139.693131">
<ele>6.2</ele>
<time>2026-04-02T21:47:28Z</time>
<speed>1.3</speed>
</trkpt>
<trkpt lat="35.885691" lon="139.693160">
<ele>6.4</ele>
<time>2026-04-02T21:47:29Z</time>
<speed>2.7</speed>
</trkpt>
<trkpt lat="35.885767" lon="139.693238">
<ele>6.8</ele>
<time>2026-04-02T21:47:33Z</time>
<speed>3.8</speed>
</trkpt>
<trkpt lat="35.885825" lon="139.693332">
<ele>7.0</ele>
<time>2026-04-02T21:47:36Z</time>
<speed>4.0</speed>
</trkpt>
<trkpt lat="35.885882" lon="139.693429">
<ele>7.2</ele>
<time>2026-04-02T21:47:39Z</time>
<speed>4.0</speed>
</trkpt>
<trkpt lat="35.886017" lon="139.693659">
<ele>7.4</ele>
<time>2026-04-02T21:47:45Z</time>
<speed>3.8</speed>
</trkpt>
<trkpt lat="35.886157" lon="139.693896">
<ele>7.4</ele>
<time>2026-04-02T21:47:52Z</time>
<speed>3.9</speed>
</trkpt>
<trkpt lat="35.886259" lon="139.694071">
<ele>7.2</ele>
<time>2026-04-02T21:47:57Z</time>
<speed>3.7</speed>
</trkpt>
<trkpt lat="35.886364" lon="139.694228">
<ele>7.2</ele>
<time>2026-04-02T21:48:02Z</time>
<speed>3.9</speed>
</trkpt>
<trkpt lat="35.886545" lon="139.694418">
<ele>7.2</ele>
<time>2026-04-02T21:48:09Z</time>
<speed>3.6</speed>
</trkpt>
<trkpt lat="35.886786" lon="139.694475">
<ele>7.2</ele>
<time>2026-04-02T21:48:16Z</time>
<speed>1.0</speed>
</trkpt>
<trkpt lat="35.886853" lon="139.694483">
<ele>7.0</ele>
<time>2026-04-02T21:48:29Z</time>
<speed>2.3</speed>
</trkpt>
<trkpt lat="35.886955" lon="139.694496">
<ele>7.0</ele>
<time>2026-04-02T21:48:32Z</time>
<speed>2.7</speed>
</trkpt>
<trkpt lat="35.887114" lon="139.694515">
<ele>7.0</ele>
<time>2026-04-02T21:48:38Z</time>
<speed>2.8</speed>
</trkpt>
<trkpt lat="35.887221" lon="139.694538">
<ele>7.0</ele>
<time>2026-04-02T21:48:43Z</time>
<speed>2.9</speed>
</trkpt>
<trkpt lat="35.887292" lon="139.694501">
<ele>7.2</ele>
<time>2026-04-02T21:48:48Z</time>
<speed>3.6</speed>
</trkpt>
<trkpt lat="35.887429" lon="139.694477">
<ele>7.2</ele>
<time>2026-04-02T21:48:53Z</time>
<speed>3.2</speed>
</trkpt>
<trkpt lat="35.887627" lon="139.694450">
<ele>7.4</ele>
<time>2026-04-02T21:48:59Z</time>
<speed>2.5</speed>
</trkpt>
<trkpt lat="35.887846" lon="139.694442">
<ele>7.4</ele>
<time>2026-04-02T21:49:05Z</time>
<speed>3.7</speed>
</trkpt>
<trkpt lat="35.888079" lon="139.694461">
<ele>7.4</ele>
<time>2026-04-02T21:49:11Z</time>
<speed>3.6</speed>
</trkpt>
<trkpt lat="35.888244" lon="139.694512">
<ele>7.4</ele>
<time>2026-04-02T21:49:16Z</time>
<speed>3.8</speed>
</trkpt>
<trkpt lat="35.888389" lon="139.694609">
<ele>7.6</ele>
<time>2026-04-02T21:49:22Z</time>
<speed>3.5</speed>
</trkpt>
<trkpt lat="35.888555" lon="139.694780">
<ele>7.6</ele>
<time>2026-04-02T21:49:28Z</time>
<speed>3.4</speed>
</trkpt>
<trkpt lat="35.888707" lon="139.694968">
<ele>7.6</ele>
<time>2026-04-02T21:49:33Z</time>
<speed>3.6</speed>
</trkpt>
<trkpt lat="35.888795" lon="139.695105">
<ele>7.6</ele>
<time>2026-04-02T21:49:40Z</time>
<speed>3.8</speed>
</trkpt>
<trkpt lat="35.888944" lon="139.695311">
<ele>7.6</ele>
<time>2026-04-02T21:49:46Z</time>
<speed>3.3</speed>
</trkpt>
<trkpt lat="35.888965" lon="139.695381">
<ele>7.6</ele>
<time>2026-04-02T21:49:51Z</time>
<speed>4.0</speed>
</trkpt>
<trkpt lat="35.888952" lon="139.695480">
<ele>7.6</ele>
<time>2026-04-02T21:49:55Z</time>
<speed>3.9</speed>
</trkpt>
<trkpt lat="35.888850" lon="139.695641">
<ele>7.6</ele>
<time>2026-04-02T21:49:56Z</time>
<speed>3.2</speed>
</trkpt>
<trkpt lat="35.888720" lon="139.695743">
<ele>7.4</ele>
<time>2026-04-02T21:50:01Z</time>
<speed>2.9</speed>
</trkpt>
<trkpt lat="35.888648" lon="139.695764">
<ele>7.2</ele>
<time>2026-04-02T21:50:05Z</time>
<speed>3.2</speed>
</trkpt>
<trkpt lat="35.888509" lon="139.695801">
<ele>7.2</ele>
<time>2026-04-02T21:50:10Z</time>
<speed>3.6</speed>
</trkpt>
<trkpt lat="35.888268" lon="139.695829">
<ele>7.2</ele>
<time>2026-04-02T21:50:16Z</time>
<speed>3.8</speed>
</trkpt>
<trkpt lat="35.888127" lon="139.695875">
<ele>7.2</ele>
<time>2026-04-02T21:50:22Z</time>
<speed>3.3</speed>
</trkpt>
<trkpt lat="35.887987" lon="139.695995">
<ele>7.2</ele>
<time>2026-04-02T21:50:28Z</time>
<speed>3.5</speed>
</trkpt>
<trkpt lat="35.887940" lon="139.696127">
<ele>7.4</ele>
<time>2026-04-02T21:50:33Z</time>
<speed>3.9</speed>
</trkpt>
<trkpt lat="35.887957" lon="139.696299">
<ele>7.4</ele>
<time>2026-04-02T21:50:40Z</time>
<speed>3.9</speed>
</trkpt>
<trkpt lat="35.888040" lon="139.696524">
<ele>7.4</ele>
<time>2026-04-02T21:50:47Z</time>
<speed>3.9</speed>
</trkpt>
<trkpt lat="35.888270" lon="139.696854">
<ele>7.2</ele>
<time>2026-04-02T21:50:51Z</time>
<speed>3.6</speed>
</trkpt>
<trkpt lat="35.888594" lon="139.697005">
<ele>7.2</ele>
<time>2026-04-02T21:50:58Z</time>
<speed>3.6</speed>
</trkpt>
<trkpt lat="35.888770" lon="139.697104">
<ele>7.2</ele>
<time>2026-04-02T21:51:04Z</time>
<speed>3.7</speed>
</trkpt>
<trkpt lat="35.888859" lon="139.697163">
<ele>7.2</ele>
<time>2026-04-02T21:51:07Z</time>
<speed>3.6</speed>
</trkpt>
<trkpt lat="35.888974" lon="139.697235">
<ele>7.2</ele>
<time>2026-04-02T21:51:11Z</time>
<speed>3.7</speed>
</trkpt>
<trkpt lat="35.889128" lon="139.697318">
<ele>7.2</ele>
<time>2026-04-02T21:51:16Z</time>
<speed>3.4</speed>
</trkpt>
<trkpt lat="35.889154" lon="139.697337">
<ele>7.2</ele>
<time>2026-04-02T21:51:17Z</time>
<speed>3.6</speed>
</trkpt>
<trkpt lat="35.889352" lon="139.697430">
<ele>7.2</ele>
<time>2026-04-02T21:51:23Z</time>
<speed>5.0</speed>
</trkpt>
<trkpt lat="35.889507" lon="139.697479">
<ele>7.0</ele>
<time>2026-04-02T21:51:27Z</time>
<speed>5.1</speed>
</trkpt>
<trkpt lat="35.889553" lon="139.697477">
<ele>7.0</ele>
<time>2026-04-02T21:51:28Z</time>
<speed>4.9</speed>
</trkpt>
<trkpt lat="35.889687" lon="139.697404">
<ele>7.0</ele>
<time>2026-04-02T21:51:32Z</time>
<speed>4.8</speed>
</trkpt>
<trkpt lat="35.889761" lon="139.697339">
<ele>7.0</ele>
<time>2026-04-02T21:51:34Z</time>
<speed>4.7</speed>
</trkpt>
<trkpt lat="35.889898" lon="139.697200">
<ele>7.2</ele>
<time>2026-04-02T21:51:38Z</time>
<speed>4.1</speed>
</trkpt>
<trkpt lat="35.890063" lon="139.697009">
<ele>7.6</ele>
<time>2026-04-02T21:51:44Z</time>
<speed>4.7</speed>
</trkpt>
<trkpt lat="35.890226" lon="139.696797">
<ele>7.6</ele>
<time>2026-04-02T21:51:50Z</time>
<speed>3.7</speed>
</trkpt>
<trkpt lat="35.890378" lon="139.696537">
<ele>7.6</ele>
<time>2026-04-02T21:51:58Z</time>
<speed>4.3</speed>
</trkpt>
<trkpt lat="35.890502" lon="139.696258">
<ele>7.6</ele>
<time>2026-04-02T21:52:05Z</time>
<speed>3.4</speed>
</trkpt>
<trkpt lat="35.890580" lon="139.696060">
<ele>7.6</ele>
<time>2026-04-02T21:52:10Z</time>
<speed>1.4</speed>
</trkpt>
<trkpt lat="35.890615" lon="139.695929">
<ele>7.4</ele>
<time>2026-04-02T21:52:19Z</time>
<speed>1.5</speed>
</trkpt>
<trkpt lat="35.890622" lon="139.695881">
<ele>7.4</ele>
<time>2026-04-02T21:52:22Z</time>
<speed>0.0</speed>
</trkpt>
<trkpt lat="35.890613" lon="139.695880">
<ele>8.2</ele>
<time>2026-04-02T21:54:08Z</time>
<speed>4.0</speed>
</trkpt>
<trkpt lat="35.890654" lon="139.695953">
<ele>8.2</ele>
<time>2026-04-02T21:54:10Z</time>
<speed>5.0</speed>
</trkpt>
<trkpt lat="35.890740" lon="139.696083">
<ele>8.2</ele>
<time>2026-04-02T21:54:13Z</time>
<speed>5.6</speed>
</trkpt>
<trkpt lat="35.890994" lon="139.696472">
<ele>8.0</ele>
<time>2026-04-02T21:54:21Z</time>
<speed>6.2</speed>
</trkpt>
<trkpt lat="35.891340" lon="139.697007">
<ele>7.2</ele>
<time>2026-04-02T21:54:31Z</time>
<speed>5.4</speed>
</trkpt>
<trkpt lat="35.891464" lon="139.697192">
<ele>7.2</ele>
<time>2026-04-02T21:54:35Z</time>
<speed>4.4</speed>
</trkpt>
<trkpt lat="35.891559" lon="139.697350">
<ele>7.2</ele>
<time>2026-04-02T21:54:39Z</time>
<speed>4.6</speed>
</trkpt>
<trkpt lat="35.891791" lon="139.697712">
<ele>8.2</ele>
<time>2026-04-02T21:54:48Z</time>
<speed>5.0</speed>
</trkpt>
<trkpt lat="35.892044" lon="139.698101">
<ele>9.0</ele>
<time>2026-04-02T21:54:57Z</time>
<speed>5.7</speed>
</trkpt>
<trkpt lat="35.892260" lon="139.698458">
<ele>8.8</ele>
<time>2026-04-02T21:55:04Z</time>
<speed>6.5</speed>
</trkpt>
<trkpt lat="35.892457" lon="139.698991">
<ele>7.6</ele>
<time>2026-04-02T21:55:12Z</time>
<speed>6.7</speed>
</trkpt>
<trkpt lat="35.892499" lon="139.699201">
<ele>7.0</ele>
<time>2026-04-02T21:55:15Z</time>
<speed>6.2</speed>
</trkpt>
<trkpt lat="35.892520" lon="139.699372">
<ele>6.2</ele>
<time>2026-04-02T21:55:19Z</time>
<speed>5.5</speed>
</trkpt>
<trkpt lat="35.892546" lon="139.699557">
<ele>6.0</ele>
<time>2026-04-02T21:55:21Z</time>
<speed>5.3</speed>
</trkpt>
<trkpt lat="35.892555" lon="139.699686">
<ele>5.8</ele>
<time>2026-04-02T21:55:25Z</time>
<speed>5.2</speed>
</trkpt>
<trkpt lat="35.892575" lon="139.699855">
<ele>5.8</ele>
<time>2026-04-02T21:55:26Z</time>
<speed>4.4</speed>
</trkpt>
<trkpt lat="35.892588" lon="139.699997">
<ele>5.8</ele>
<time>2026-04-02T21:55:30Z</time>
<speed>3.6</speed>
</trkpt>
<trkpt lat="35.892603" lon="139.700123">
<ele>6.0</ele>
<time>2026-04-02T21:55:32Z</time>
<speed>2.0</speed>
</trkpt>
<trkpt lat="35.892620" lon="139.700249">
<ele>6.4</ele>
<time>2026-04-02T21:55:38Z</time>
<speed>0.2</speed>
</trkpt>
<trkpt lat="35.892629" lon="139.700341">
<ele>6.8</ele>
<time>2026-04-02T21:56:05Z</time>
<speed>1.8</speed>
</trkpt>
<trkpt lat="35.892651" lon="139.700363">
<ele>6.8</ele>
<time>2026-04-02T21:56:06Z</time>
<speed>1.9</speed>
</trkpt>
<trkpt lat="35.892665" lon="139.700375">
<ele>6.8</ele>
<time>2026-04-02T21:56:07Z</time>
<speed>1.3</speed>
</trkpt>
<trkpt lat="35.892700" lon="139.700386">
<ele>6.8</ele>
<time>2026-04-02T21:56:10Z</time>
<speed>2.7</speed>
</trkpt>
<trkpt lat="35.892738" lon="139.700349">
<ele>6.8</ele>
<time>2026-04-02T21:56:12Z</time>
<speed>4.1</speed>
</trkpt>
<trkpt lat="35.892781" lon="139.700365">
<ele>6.8</ele>
<time>2026-04-02T21:56:13Z</time>
<speed>5.4</speed>
</trkpt>
<trkpt lat="35.892814" lon="139.700357">
<ele>6.8</ele>
<time>2026-04-02T21:56:14Z</time>
<speed>6.4</speed>
</trkpt>
<trkpt lat="35.892909" lon="139.700327">
<ele>6.8</ele>
<time>2026-04-02T21:56:16Z</time>
<speed>6.8</speed>
</trkpt>
<trkpt lat="35.893024" lon="139.700303">
<ele>6.8</ele>
<time>2026-04-02T21:56:17Z</time>
<speed>6.1</speed>
</trkpt>
<trkpt lat="35.893183" lon="139.700287">
<ele>6.4</ele>
<time>2026-04-02T21:56:21Z</time>
<speed>5.7</speed>
</trkpt>
<trkpt lat="35.893346" lon="139.700276">
<ele>5.6</ele>
<time>2026-04-02T21:56:24Z</time>
<speed>5.5</speed>
</trkpt>
<trkpt lat="35.893487" lon="139.700282">
<ele>4.8</ele>
<time>2026-04-02T21:56:27Z</time>
<speed>5.5</speed>
</trkpt>
<trkpt lat="35.893589" lon="139.700295">
<ele>4.8</ele>
<time>2026-04-02T21:56:28Z</time>
<speed>5.4</speed>
</trkpt>
<trkpt lat="35.894100" lon="139.700349">
<ele>4.8</ele>
<time>2026-04-02T21:56:38Z</time>
<speed>5.5</speed>
</trkpt>
<trkpt lat="35.894545" lon="139.700400">
<ele>4.8</ele>
<time>2026-04-02T21:56:45Z</time>
<speed>5.6</speed>
</trkpt>
<trkpt lat="35.894802" lon="139.700435">
<ele>4.8</ele>
<time>2026-04-02T21:56:52Z</time>
<speed>5.7</speed>
</trkpt>
<trkpt lat="35.895169" lon="139.700469">
<ele>4.8</ele>
<time>2026-04-02T21:57:00Z</time>
<speed>5.9</speed>
</trkpt>
<trkpt lat="35.895604" lon="139.700518">
<ele>4.8</ele>
<time>2026-04-02T21:57:08Z</time>
<speed>5.7</speed>
</trkpt>
<trkpt lat="35.896127" lon="139.700587">
<ele>5.0</ele>
<time>2026-04-02T21:57:18Z</time>
<speed>5.6</speed>
</trkpt>
<trkpt lat="35.896627" lon="139.700641">
<ele>5.2</ele>
<time>2026-04-02T21:57:28Z</time>
<speed>5.6</speed>
</trkpt>
<trkpt lat="35.897048" lon="139.700684">
<ele>5.0</ele>
<time>2026-04-02T21:57:37Z</time>
<speed>5.4</speed>
</trkpt>
<trkpt lat="35.897603" lon="139.700743">
<ele>5.2</ele>
<time>2026-04-02T21:57:48Z</time>
<speed>4.0</speed>
</trkpt>
<trkpt lat="35.897781" lon="139.700745">
<ele>5.2</ele>
<time>2026-04-02T21:57:54Z</time>
<speed>0.6</speed>
</trkpt>
<trkpt lat="35.897783" lon="139.700754">
<ele>5.2</ele>
<time>2026-04-02T21:57:58Z</time>
<speed>0.1</speed>
</trkpt>
<trkpt lat="35.897796" lon="139.700765">
<ele>4.8</ele>
<time>2026-04-02T21:58:42Z</time>
<speed>2.7</speed>
</trkpt>
<trkpt lat="35.897820" lon="139.700772">
<ele>4.8</ele>
<time>2026-04-02T21:58:43Z</time>
<speed>4.1</speed>
</trkpt>
<trkpt lat="35.898233" lon="139.700789">
<ele>4.8</ele>
<time>2026-04-02T21:58:47Z</time>
<speed>4.7</speed>
</trkpt>
<trkpt lat="35.898428" lon="139.700743">
<ele>5.2</ele>
<time>2026-04-02T21:58:55Z</time>
<speed>5.2</speed>
</trkpt>
<trkpt lat="35.898641" lon="139.700657">
<ele>5.6</ele>
<time>2026-04-02T21:59:03Z</time>
<speed>5.4</speed>
</trkpt>
<trkpt lat="35.898889" lon="139.700515">
<ele>5.6</ele>
<time>2026-04-02T21:59:11Z</time>
<speed>5.7</speed>
</trkpt>
<trkpt lat="35.899365" lon="139.700150">
<ele>5.8</ele>
<time>2026-04-02T21:59:19Z</time>
<speed>5.6</speed>
</trkpt>
<trkpt lat="35.899704" lon="139.699909">
<ele>5.8</ele>
<time>2026-04-02T21:59:27Z</time>
<speed>5.6</speed>
</trkpt>
<trkpt lat="35.900097" lon="139.699622">
<ele>5.8</ele>
<time>2026-04-02T21:59:36Z</time>
<speed>5.6</speed>
</trkpt>
<trkpt lat="35.900529" lon="139.699295">
<ele>5.8</ele>
<time>2026-04-02T21:59:46Z</time>
<speed>5.6</speed>
</trkpt>
<trkpt lat="35.900875" lon="139.699034">
<ele>5.6</ele>
<time>2026-04-02T21:59:54Z</time>
<speed>5.2</speed>
</trkpt>
<trkpt lat="35.901151" lon="139.698825">
<ele>5.6</ele>
<time>2026-04-02T22:00:01Z</time>
<speed>5.1</speed>
</trkpt>
<trkpt lat="35.901518" lon="139.698562">
<ele>5.4</ele>
<time>2026-04-02T22:00:10Z</time>
<speed>5.2</speed>
</trkpt>
<trkpt lat="35.901946" lon="139.698249">
<ele>5.6</ele>
<time>2026-04-02T22:00:21Z</time>
<speed>5.2</speed>
</trkpt>
<trkpt lat="35.902317" lon="139.697962">
<ele>5.8</ele>
<time>2026-04-02T22:00:30Z</time>
<speed>3.7</speed>
</trkpt>
<trkpt lat="35.902396" lon="139.697884">
<ele>5.8</ele>
<time>2026-04-02T22:00:34Z</time>
<speed>4.7</speed>
</trkpt>
<trkpt lat="35.902478" lon="139.697784">
<ele>5.8</ele>
<time>2026-04-02T22:00:36Z</time>
<speed>5.1</speed>
</trkpt>
<trkpt lat="35.902593" lon="139.697650">
<ele>5.8</ele>
<time>2026-04-02T22:00:39Z</time>
<speed>5.3</speed>
</trkpt>
<trkpt lat="35.902867" lon="139.697339">
<ele>5.8</ele>
<time>2026-04-02T22:00:47Z</time>
<speed>5.3</speed>
</trkpt>
<trkpt lat="35.903184" lon="139.696961">
<ele>5.8</ele>
<time>2026-04-02T22:00:56Z</time>
<speed>5.5</speed>
</trkpt>
<trkpt lat="35.903530" lon="139.696564">
<ele>6.0</ele>
<time>2026-04-02T22:01:07Z</time>
<speed>5.2</speed>
</trkpt>
<trkpt lat="35.903693" lon="139.696363">
<ele>6.0</ele>
<time>2026-04-02T22:01:08Z</time>
<speed>5.4</speed>
</trkpt>
<trkpt lat="35.903992" lon="139.696020">
<ele>6.0</ele>
<time>2026-04-02T22:01:16Z</time>
<speed>5.2</speed>
</trkpt>
<trkpt lat="35.904249" lon="139.695727">
<ele>6.0</ele>
<time>2026-04-02T22:01:23Z</time>
<speed>5.4</speed>
</trkpt>
<trkpt lat="35.904579" lon="139.695341">
<ele>6.0</ele>
<time>2026-04-02T22:01:34Z</time>
<speed>5.3</speed>
</trkpt>
<trkpt lat="35.904842" lon="139.695033">
<ele>6.0</ele>
<time>2026-04-02T22:01:43Z</time>
<speed>5.5</speed>
</trkpt>
<trkpt lat="35.905192" lon="139.694633">
<ele>5.8</ele>
<time>2026-04-02T22:01:53Z</time>
<speed>5.4</speed>
</trkpt>
<trkpt lat="35.905505" lon="139.694268">
<ele>6.0</ele>
<time>2026-04-02T22:02:01Z</time>
<speed>5.4</speed>
</trkpt>
<trkpt lat="35.905735" lon="139.693984">
<ele>6.2</ele>
<time>2026-04-02T22:02:10Z</time>
<speed>5.1</speed>
</trkpt>
<trkpt lat="35.906076" lon="139.693611">
<ele>6.0</ele>
<time>2026-04-02T22:02:22Z</time>
<speed>4.8</speed>
</trkpt>
<trkpt lat="35.906215" lon="139.693453">
<ele>6.0</ele>
<time>2026-04-02T22:02:24Z</time>
<speed>5.0</speed>
</trkpt>
<trkpt lat="35.906295" lon="139.693362">
<ele>6.0</ele>
<time>2026-04-02T22:02:27Z</time>
<speed>5.0</speed>
</trkpt>
<trkpt lat="35.906452" lon="139.693201">
<ele>6.2</ele>
<time>2026-04-02T22:02:28Z</time>
<speed>4.8</speed>
</trkpt>
<trkpt lat="35.906589" lon="139.693083">
<ele>6.4</ele>
<time>2026-04-02T22:02:35Z</time>
<speed>1.7</speed>
</trkpt>
<trkpt lat="35.906656" lon="139.693037">
<ele>6.4</ele>
<time>2026-04-02T22:02:38Z</time>
<speed>0.5</speed>
</trkpt>
<trkpt lat="35.906732" lon="139.693032">
<ele>7.4</ele>
<time>2026-04-02T22:02:56Z</time>
<speed>3.6</speed>
</trkpt>
<trkpt lat="35.906760" lon="139.693088">
<ele>7.4</ele>
<time>2026-04-02T22:02:57Z</time>
<speed>3.8</speed>
</trkpt>
<trkpt lat="35.906786" lon="139.693136">
<ele>7.4</ele>
<time>2026-04-02T22:03:00Z</time>
<speed>3.4</speed>
</trkpt>
<trkpt lat="35.906832" lon="139.693201">
<ele>7.6</ele>
<time>2026-04-02T22:03:01Z</time>
<speed>4.1</speed>
</trkpt>
<trkpt lat="35.906945" lon="139.693383">
<ele>7.8</ele>
<time>2026-04-02T22:03:08Z</time>
<speed>4.6</speed>
</trkpt>
<trkpt lat="35.907027" lon="139.693512">
<ele>8.0</ele>
<time>2026-04-02T22:03:10Z</time>
<speed>4.5</speed>
</trkpt>
<trkpt lat="35.907169" lon="139.693761">
<ele>8.2</ele>
<time>2026-04-02T22:03:16Z</time>
<speed>3.7</speed>
</trkpt>
<trkpt lat="35.907256" lon="139.693895">
<ele>8.4</ele>
<time>2026-04-02T22:03:24Z</time>
<speed>1.3</speed>
</trkpt>
<trkpt lat="35.907336" lon="139.694024">
<ele>8.4</ele>
<time>2026-04-02T22:03:25Z</time>
<speed>0.3</speed>
</trkpt>
<trkpt lat="35.907364" lon="139.694067">
<ele>8.6</ele>
<time>2026-04-02T22:03:38Z</time>
<speed>3.0</speed>
</trkpt>
<trkpt lat="35.907455" lon="139.694196">
<ele>8.6</ele>
<time>2026-04-02T22:03:43Z</time>
<speed>4.1</speed>
</trkpt>
<trkpt lat="35.907650" lon="139.694409">
<ele>8.6</ele>
<time>2026-04-02T22:03:50Z</time>
<speed>3.0</speed>
</trkpt>
<trkpt lat="35.907743" lon="139.694574">
<ele>9.2</ele>
<time>2026-04-02T22:03:56Z</time>
<speed>3.5</speed>
</trkpt>
<trkpt lat="35.907618" lon="139.694668">
<ele>9.4</ele>
<time>2026-04-02T22:04:00Z</time>
<speed>4.7</speed>
</trkpt>
<trkpt lat="35.907592" lon="139.694705">
<ele>9.4</ele>
<time>2026-04-02T22:04:01Z</time>
<speed>4.7</speed>
</trkpt>
<trkpt lat="35.907429" lon="139.694797">
<ele>9.4</ele>
<time>2026-04-02T22:04:07Z</time>
<speed>4.7</speed>
</trkpt>
<trkpt lat="35.907299" lon="139.694874">
<ele>9.0</ele>
<time>2026-04-02T22:04:10Z</time>
<speed>4.7</speed>
</trkpt>
<trkpt lat="35.907216" lon="139.694920">
<ele>9.0</ele>
<time>2026-04-02T22:04:12Z</time>
<speed>4.5</speed>
</trkpt>
<trkpt lat="35.907123" lon="139.694990">
<ele>8.8</ele>
<time>2026-04-02T22:04:14Z</time>
<speed>4.7</speed>
</trkpt>
<trkpt lat="35.906934" lon="139.695172">
<ele>8.6</ele>
<time>2026-04-02T22:04:20Z</time>
<speed>4.7</speed>
</trkpt>
<trkpt lat="35.906706" lon="139.695430">
<ele>8.4</ele>
<time>2026-04-02T22:04:30Z</time>
<speed>4.8</speed>
</trkpt>
<trkpt lat="35.906523" lon="139.695684">
<ele>8.4</ele>
<time>2026-04-02T22:04:36Z</time>
<speed>4.6</speed>
</trkpt>
<trkpt lat="35.906408" lon="139.695888">
<ele>8.4</ele>
<time>2026-04-02T22:04:38Z</time>
<speed>4.6</speed>
</trkpt>
<trkpt lat="35.906358" lon="139.696122">
<ele>8.4</ele>
<time>2026-04-02T22:04:39Z</time>
<speed>4.6</speed>
</trkpt>
<trkpt lat="35.906369" lon="139.696352">
<ele>8.4</ele>
<time>2026-04-02T22:04:43Z</time>
<speed>4.5</speed>
</trkpt>
<trkpt lat="35.906437" lon="139.696535">
<ele>8.4</ele>
<time>2026-04-02T22:04:49Z</time>
<speed>4.6</speed>
</trkpt>
<trkpt lat="35.906515" lon="139.696620">
<ele>8.4</ele>
<time>2026-04-02T22:04:53Z</time>
<speed>4.5</speed>
</trkpt>
<trkpt lat="35.906562" lon="139.696650">
<ele>8.4</ele>
<time>2026-04-02T22:04:54Z</time>
<speed>4.0</speed>
</trkpt>
<trkpt lat="35.906696" lon="139.696714">
<ele>8.4</ele>
<time>2026-04-02T22:04:58Z</time>
<speed>4.1</speed>
</trkpt>
<trkpt lat="35.906731" lon="139.696728">
<ele>8.4</ele>
<time>2026-04-02T22:04:59Z</time>
<speed>4.6</speed>
</trkpt>
<trkpt lat="35.906967" lon="139.696827">
<ele>8.4</ele>
<time>2026-04-02T22:05:05Z</time>
<speed>4.6</speed>
</trkpt>
<trkpt lat="35.907003" lon="139.696852">
<ele>8.4</ele>
<time>2026-04-02T22:05:06Z</time>
<speed>4.9</speed>
</trkpt>
<trkpt lat="35.907071" lon="139.696950">
<ele>8.4</ele>
<time>2026-04-02T22:05:09Z</time>
<speed>3.8</speed>
</trkpt>
<trkpt lat="35.907112" lon="139.697103">
<ele>8.4</ele>
<time>2026-04-02T22:05:13Z</time>
<speed>0.8</speed>
</trkpt>
<trkpt lat="35.907121" lon="139.697154">
<ele>8.2</ele>
<time>2026-04-02T22:05:17Z</time>
<speed>0.1</speed>
</trkpt>
<trkpt lat="35.907140" lon="139.697216">
<ele>7.4</ele>
<time>2026-04-02T22:06:24Z</time>
<speed>2.6</speed>
</trkpt>
<trkpt lat="35.907164" lon="139.697326">
<ele>7.4</ele>
<time>2026-04-02T22:06:26Z</time>
<speed>3.6</speed>
</trkpt>
<trkpt lat="35.907211" lon="139.697512">
<ele>7.6</ele>
<time>2026-04-02T22:06:32Z</time>
<speed>4.1</speed>
</trkpt>
<trkpt lat="35.907223" lon="139.697828">
<ele>7.8</ele>
<time>2026-04-02T22:06:39Z</time>
<speed>3.7</speed>
</trkpt>
<trkpt lat="35.907162" lon="139.697953">
<ele>7.8</ele>
<time>2026-04-02T22:06:43Z</time>
<speed>3.8</speed>
</trkpt>
<trkpt lat="35.907067" lon="139.697975">
<ele>7.8</ele>
<time>2026-04-02T22:06:45Z</time>
<speed>4.2</speed>
</trkpt>
<trkpt lat="35.906993" lon="139.697998">
<ele>7.8</ele>
<time>2026-04-02T22:06:47Z</time>
<speed>4.2</speed>
</trkpt>
<trkpt lat="35.906957" lon="139.698011">
<ele>7.8</ele>
<time>2026-04-02T22:06:48Z</time>
<speed>4.2</speed>
</trkpt>
<trkpt lat="35.906658" lon="139.698066">
<ele>7.8</ele>
<time>2026-04-02T22:06:56Z</time>
<speed>4.4</speed>
</trkpt>
<trkpt lat="35.906573" lon="139.698082">
<ele>7.8</ele>
<time>2026-04-02T22:06:58Z</time>
<speed>4.5</speed>
</trkpt>
<trkpt lat="35.906460" lon="139.698101">
<ele>7.8</ele>
<time>2026-04-02T22:07:00Z</time>
<speed>4.6</speed>
</trkpt>
<trkpt lat="35.906334" lon="139.698117">
<ele>7.8</ele>
<time>2026-04-02T22:07:04Z</time>
<speed>4.3</speed>
</trkpt>
<trkpt lat="35.906213" lon="139.698114">
<ele>7.8</ele>
<time>2026-04-02T22:07:05Z</time>
<speed>4.5</speed>
</trkpt>
<trkpt lat="35.906026" lon="139.698120">
<ele>7.8</ele>
<time>2026-04-02T22:07:11Z</time>
<speed>4.5</speed>
</trkpt>
<trkpt lat="35.905846" lon="139.698168">
<ele>7.8</ele>
<time>2026-04-02T22:07:18Z</time>
<speed>4.6</speed>
</trkpt>
<trkpt lat="35.905670" lon="139.698275">
<ele>8.0</ele>
<time>2026-04-02T22:07:20Z</time>
<speed>4.6</speed>
</trkpt>
<trkpt lat="35.905522" lon="139.698361">
<ele>8.0</ele>
<time>2026-04-02T22:07:24Z</time>
<speed>4.8</speed>
</trkpt>
<trkpt lat="35.905142" lon="139.698578">
<ele>7.8</ele>
<time>2026-04-02T22:07:34Z</time>
<speed>4.8</speed>
</trkpt>
<trkpt lat="35.904698" lon="139.698825">
<ele>7.6</ele>
<time>2026-04-02T22:07:45Z</time>
<speed>4.8</speed>
</trkpt>
<trkpt lat="35.904340" lon="139.699045">
<ele>7.6</ele>
<time>2026-04-02T22:07:54Z</time>
<speed>4.9</speed>
</trkpt>
<trkpt lat="35.904199" lon="139.699128">
<ele>7.6</ele>
<time>2026-04-02T22:08:02Z</time>
<speed>4.9</speed>
</trkpt>
<trkpt lat="35.903791" lon="139.699505">
<ele>7.6</ele>
<time>2026-04-02T22:08:10Z</time>
<speed>4.8</speed>
</trkpt>
<trkpt lat="35.903537" lon="139.699793">
<ele>7.6</ele>
<time>2026-04-02T22:08:18Z</time>
<speed>5.1</speed>
</trkpt>
<trkpt lat="35.903504" lon="139.699833">
<ele>7.6</ele>
<time>2026-04-02T22:08:19Z</time>
<speed>4.9</speed>
</trkpt>
<trkpt lat="35.903298" lon="139.700112">
<ele>7.4</ele>
<time>2026-04-02T22:08:26Z</time>
<speed>4.6</speed>
</trkpt>
<trkpt lat="35.903108" lon="139.700312">
<ele>7.6</ele>
<time>2026-04-02T22:08:32Z</time>
<speed>4.9</speed>
</trkpt>
<trkpt lat="35.902819" lon="139.700510">
<ele>7.6</ele>
<time>2026-04-02T22:08:39Z</time>
<speed>4.8</speed>
</trkpt>
<trkpt lat="35.902493" lon="139.700748">
<ele>7.6</ele>
<time>2026-04-02T22:08:48Z</time>
<speed>5.1</speed>
</trkpt>
<trkpt lat="35.902230" lon="139.700880">
<ele>7.8</ele>
<time>2026-04-02T22:08:56Z</time>
<speed>5.0</speed>
</trkpt>
<trkpt lat="35.902074" lon="139.700936">
<ele>7.8</ele>
<time>2026-04-02T22:08:58Z</time>
<speed>4.7</speed>
</trkpt>
<trkpt lat="35.901978" lon="139.700976">
<ele>7.8</ele>
<time>2026-04-02T22:09:00Z</time>
<speed>4.6</speed>
</trkpt>
<trkpt lat="35.901900" lon="139.701017">
<ele>7.8</ele>
<time>2026-04-02T22:09:02Z</time>
<speed>4.8</speed>
</trkpt>
<trkpt lat="35.901855" lon="139.701049">
<ele>7.6</ele>
<time>2026-04-02T22:09:03Z</time>
<speed>4.6</speed>
</trkpt>
<trkpt lat="35.901772" lon="139.701092">
<ele>7.6</ele>
<time>2026-04-02T22:09:05Z</time>
<speed>4.4</speed>
</trkpt>
<trkpt lat="35.901718" lon="139.701124">
<ele>7.4</ele>
<time>2026-04-02T22:09:06Z</time>
<speed>4.1</speed>
</trkpt>
<trkpt lat="35.901646" lon="139.701167">
<ele>7.2</ele>
<time>2026-04-02T22:09:09Z</time>
<speed>4.5</speed>
</trkpt>
<trkpt lat="35.901548" lon="139.701234">
<ele>7.2</ele>
<time>2026-04-02T22:09:12Z</time>
<speed>4.6</speed>
</trkpt>
<trkpt lat="35.901455" lon="139.701285">
<ele>7.2</ele>
<time>2026-04-02T22:09:14Z</time>
<speed>4.8</speed>
</trkpt>
<trkpt lat="35.901372" lon="139.701336">
<ele>7.2</ele>
<time>2026-04-02T22:09:16Z</time>
<speed>4.7</speed>
</trkpt>
<trkpt lat="35.901255" lon="139.701392">
<ele>7.0</ele>
<time>2026-04-02T22:09:20Z</time>
<speed>4.5</speed>
</trkpt>
<trkpt lat="35.901151" lon="139.701454">
<ele>7.0</ele>
<time>2026-04-02T22:09:22Z</time>
<speed>4.7</speed>
</trkpt>
<trkpt lat="35.901075" lon="139.701518">
<ele>7.0</ele>
<time>2026-04-02T22:09:25Z</time>
<speed>4.5</speed>
</trkpt>
<trkpt lat="35.900985" lon="139.701647">
<ele>7.0</ele>
<time>2026-04-02T22:09:30Z</time>
<speed>4.9</speed>
</trkpt>
<trkpt lat="35.900803" lon="139.702047">
<ele>6.8</ele>
<time>2026-04-02T22:09:38Z</time>
<speed>4.6</speed>
</trkpt>
<trkpt lat="35.900697" lon="139.702234">
<ele>7.0</ele>
<time>2026-04-02T22:09:46Z</time>
<speed>4.6</speed>
</trkpt>
<trkpt lat="35.900323" lon="139.702655">
<ele>7.0</ele>
<time>2026-04-02T22:09:54Z</time>
<speed>4.7</speed>
</trkpt>
<trkpt lat="35.900199" lon="139.702765">
<ele>7.0</ele>
<time>2026-04-02T22:09:56Z</time>
<speed>4.7</speed>
</trkpt>
<trkpt lat="35.900036" lon="139.702945">
<ele>7.0</ele>
<time>2026-04-02T22:10:01Z</time>
<speed>4.7</speed>
</trkpt>
<trkpt lat="35.899893" lon="139.703103">
<ele>7.0</ele>
<time>2026-04-02T22:10:11Z</time>
<speed>4.8</speed>
</trkpt>
<trkpt lat="35.899628" lon="139.703492">
<ele>6.6</ele>
<time>2026-04-02T22:10:18Z</time>
<speed>4.8</speed>
</trkpt>
<trkpt lat="35.899465" lon="139.703919">
<ele>6.6</ele>
<time>2026-04-02T22:10:25Z</time>
<speed>4.4</speed>
</trkpt>
<trkpt lat="35.899421" lon="139.703994">
<ele>6.6</ele>
<time>2026-04-02T22:10:26Z</time>
<speed>1.9</speed>
</trkpt>
<trkpt lat="35.899402" lon="139.704034">
<ele>6.8</ele>
<time>2026-04-02T22:10:31Z</time>
<speed>1.5</speed>
</trkpt>
<trkpt lat="35.899378" lon="139.704085">
<ele>6.8</ele>
<time>2026-04-02T22:10:32Z</time>
<speed>2.1</speed>
</trkpt>
<trkpt lat="35.899358" lon="139.704133">
<ele>6.8</ele>
<time>2026-04-02T22:10:36Z</time>
<speed>3.7</speed>
</trkpt>
<trkpt lat="35.899252" lon="139.704316">
<ele>7.0</ele>
<time>2026-04-02T22:10:42Z</time>
<speed>3.9</speed>
</trkpt>
<trkpt lat="35.899191" lon="139.704356">
<ele>7.0</ele>
<time>2026-04-02T22:10:45Z</time>
<speed>3.6</speed>
</trkpt>
<trkpt lat="35.899110" lon="139.704391">
<ele>7.0</ele>
<time>2026-04-02T22:10:46Z</time>
<speed>4.2</speed>
</trkpt>
<trkpt lat="35.898913" lon="139.704399">
<ele>7.0</ele>
<time>2026-04-02T22:10:52Z</time>
<speed>4.3</speed>
</trkpt>
<trkpt lat="35.898602" lon="139.704359">
<ele>6.8</ele>
<time>2026-04-02T22:11:00Z</time>
<speed>4.3</speed>
</trkpt>
<trkpt lat="35.898209" lon="139.704292">
<ele>6.8</ele>
<time>2026-04-02T22:11:07Z</time>
<speed>4.5</speed>
</trkpt>
<trkpt lat="35.898067" lon="139.704217">
<ele>6.8</ele>
<time>2026-04-02T22:11:14Z</time>
<speed>5.0</speed>
</trkpt>
<trkpt lat="35.897809" lon="139.703999">
<ele>6.6</ele>
<time>2026-04-02T22:11:21Z</time>
<speed>4.5</speed>
</trkpt>
<trkpt lat="35.897447" lon="139.703677">
<ele>6.8</ele>
<time>2026-04-02T22:11:32Z</time>
<speed>4.6</speed>
</trkpt>
<trkpt lat="35.897207" lon="139.703478">
<ele>6.8</ele>
<time>2026-04-02T22:11:39Z</time>
<speed>4.6</speed>
</trkpt>
<trkpt lat="35.897059" lon="139.703404">
<ele>6.8</ele>
<time>2026-04-02T22:11:45Z</time>
<speed>4.9</speed>
</trkpt>
<trkpt lat="35.896831" lon="139.703339">
<ele>6.6</ele>
<time>2026-04-02T22:11:51Z</time>
<speed>4.4</speed>
</trkpt>
<trkpt lat="35.896488" lon="139.703342">
<ele>6.6</ele>
<time>2026-04-02T22:11:58Z</time>
<speed>4.0</speed>
</trkpt>
<trkpt lat="35.896177" lon="139.703339">
<ele>6.6</ele>
<time>2026-04-02T22:12:05Z</time>
<speed>4.4</speed>
</trkpt>
<trkpt lat="35.895886" lon="139.703342">
<ele>6.4</ele>
<time>2026-04-02T22:12:12Z</time>
<speed>4.7</speed>
</trkpt>
<trkpt lat="35.895636" lon="139.703363">
<ele>6.4</ele>
<time>2026-04-02T22:12:19Z</time>
<speed>4.7</speed>
</trkpt>
<trkpt lat="35.895443" lon="139.703401">
<ele>6.4</ele>
<time>2026-04-02T22:12:26Z</time>
<speed>4.9</speed>
</trkpt>
<trkpt lat="35.895136" lon="139.703557">
<ele>6.4</ele>
<time>2026-04-02T22:12:29Z</time>
<speed>4.7</speed>
</trkpt>
<trkpt lat="35.894784" lon="139.703768">
<ele>6.4</ele>
<time>2026-04-02T22:12:35Z</time>
<speed>4.8</speed>
</trkpt>
<trkpt lat="35.894663" lon="139.703854">
<ele>6.4</ele>
<time>2026-04-02T22:12:43Z</time>
<speed>4.1</speed>
</trkpt>
<trkpt lat="35.894591" lon="139.703927">
<ele>6.4</ele>
<time>2026-04-02T22:12:44Z</time>
<speed>4.3</speed>
</trkpt>
<trkpt lat="35.894487" lon="139.704053">
<ele>6.4</ele>
<time>2026-04-02T22:12:47Z</time>
<speed>3.8</speed>
</trkpt>
<trkpt lat="35.894404" lon="139.704174">
<ele>6.2</ele>
<time>2026-04-02T22:12:51Z</time>
<speed>2.8</speed>
</trkpt>
<trkpt lat="35.894332" lon="139.704286">
<ele>6.2</ele>
<time>2026-04-02T22:12:56Z</time>
<speed>3.6</speed>
</trkpt>
<trkpt lat="35.894278" lon="139.704391">
<ele>6.2</ele>
<time>2026-04-02T22:12:58Z</time>
<speed>4.1</speed>
</trkpt>
<trkpt lat="35.894222" lon="139.704511">
<ele>6.2</ele>
<time>2026-04-02T22:13:03Z</time>
<speed>4.0</speed>
</trkpt>
<trkpt lat="35.894154" lon="139.704646">
<ele>6.4</ele>
<time>2026-04-02T22:13:04Z</time>
<speed>4.2</speed>
</trkpt>
<trkpt lat="35.894074" lon="139.704804">
<ele>6.4</ele>
<time>2026-04-02T22:13:08Z</time>
<speed>4.0</speed>
</trkpt>
<trkpt lat="35.893989" lon="139.704994">
<ele>6.4</ele>
<time>2026-04-02T22:13:13Z</time>
<speed>4.4</speed>
</trkpt>
<trkpt lat="35.893887" lon="139.705177">
<ele>6.4</ele>
<time>2026-04-02T22:13:19Z</time>
<speed>4.5</speed>
</trkpt>
<trkpt lat="35.893835" lon="139.705220">
<ele>6.4</ele>
<time>2026-04-02T22:13:22Z</time>
<speed>4.7</speed>
</trkpt>
<trkpt lat="35.893737" lon="139.705252">
<ele>6.4</ele>
<time>2026-04-02T22:13:24Z</time>
<speed>4.7</speed>
</trkpt>
<trkpt lat="35.893578" lon="139.705305">
<ele>6.8</ele>
<time>2026-04-02T22:13:28Z</time>
<speed>4.9</speed>
</trkpt>
<trkpt lat="35.893442" lon="139.705354">
<ele>7.0</ele>
<time>2026-04-02T22:13:31Z</time>
<speed>5.0</speed>
</trkpt>
<trkpt lat="35.893276" lon="139.705389">
<ele>7.0</ele>
<time>2026-04-02T22:13:37Z</time>
<speed>5.0</speed>
</trkpt>
<trkpt lat="35.893134" lon="139.705378">
<ele>7.0</ele>
<time>2026-04-02T22:13:38Z</time>
<speed>4.4</speed>
</trkpt>
<trkpt lat="35.893014" lon="139.705321">
<ele>6.6</ele>
<time>2026-04-02T22:13:43Z</time>
<speed>4.5</speed>
</trkpt>
<trkpt lat="35.892937" lon="139.705212">
<ele>6.6</ele>
<time>2026-04-02T22:13:47Z</time>
<speed>4.5</speed>
</trkpt>
<trkpt lat="35.892903" lon="139.705112">
<ele>6.6</ele>
<time>2026-04-02T22:13:48Z</time>
<speed>4.5</speed>
</trkpt>
<trkpt lat="35.892907" lon="139.704659">
<ele>6.6</ele>
<time>2026-04-02T22:13:54Z</time>
<speed>4.4</speed>
</trkpt>
<trkpt lat="35.892885" lon="139.704275">
<ele>6.8</ele>
<time>2026-04-02T22:14:03Z</time>
<speed>0.2</speed>
</trkpt>
<trkpt lat="35.892853" lon="139.704050">
<ele>6.0</ele>
<time>2026-04-02T22:15:35Z</time>
<speed>3.4</speed>
</trkpt>
<trkpt lat="35.892859" lon="139.703887">
<ele>6.0</ele>
<time>2026-04-02T22:15:37Z</time>
<speed>3.7</speed>
</trkpt>
<trkpt lat="35.892838" lon="139.703728">
<ele>6.0</ele>
<time>2026-04-02T22:15:43Z</time>
<speed>3.8</speed>
</trkpt>
<trkpt lat="35.892790" lon="139.703567">
<ele>6.2</ele>
<time>2026-04-02T22:15:48Z</time>
<speed>4.8</speed>
</trkpt>
<trkpt lat="35.892731" lon="139.703492">
<ele>6.2</ele>
<time>2026-04-02T22:15:52Z</time>
<speed>4.7</speed>
</trkpt>
<trkpt lat="35.892635" lon="139.703425">
<ele>6.2</ele>
<time>2026-04-02T22:15:57Z</time>
<speed>5.0</speed>
</trkpt>
<trkpt lat="35.892418" lon="139.703388">
<ele>6.2</ele>
<time>2026-04-02T22:16:07Z</time>
<speed>4.9</speed>
</trkpt>
<trkpt lat="35.892216" lon="139.703385">
<ele>6.2</ele>
<time>2026-04-02T22:16:14Z</time>
<speed>5.1</speed>
</trkpt>
<trkpt lat="35.891727" lon="139.703439">
<ele>6.2</ele>
<time>2026-04-02T22:16:23Z</time>
<speed>4.2</speed>
</trkpt>
<trkpt lat="35.891275" lon="139.703538">
<ele>6.0</ele>
<time>2026-04-02T22:16:30Z</time>
<speed>0.8</speed>
</trkpt>
<trkpt lat="35.890938" lon="139.703610">
<ele>6.0</ele>
<time>2026-04-02T22:16:34Z</time>
<speed>3.2</speed>
</trkpt>
<trkpt lat="35.890815" lon="139.703642">
<ele>6.0</ele>
<time>2026-04-02T22:16:38Z</time>
<speed>4.5</speed>
</trkpt>
<trkpt lat="35.890512" lon="139.703704">
<ele>5.8</ele>
<time>2026-04-02T22:16:47Z</time>
<speed>5.0</speed>
</trkpt>
<trkpt lat="35.890128" lon="139.703857">
<ele>5.8</ele>
<time>2026-04-02T22:16:54Z</time>
<speed>5.1</speed>
</trkpt>
<trkpt lat="35.889754" lon="139.704058">
<ele>5.6</ele>
<time>2026-04-02T22:17:04Z</time>
<speed>5.2</speed>
</trkpt>
<trkpt lat="35.889439" lon="139.704211">
<ele>5.6</ele>
<time>2026-04-02T22:17:11Z</time>
<speed>5.1</speed>
</trkpt>
<trkpt lat="35.889094" lon="139.704377">
<ele>5.6</ele>
<time>2026-04-02T22:17:19Z</time>
<speed>4.8</speed>
</trkpt>
<trkpt lat="35.888957" lon="139.704436">
<ele>5.6</ele>
<time>2026-04-02T22:17:24Z</time>
<speed>4.7</speed>
</trkpt>
<trkpt lat="35.888776" lon="139.704511">
<ele>5.6</ele>
<time>2026-04-02T22:17:25Z</time>
<speed>4.9</speed>
</trkpt>
<trkpt lat="35.888446" lon="139.704659">
<ele>5.6</ele>
<time>2026-04-02T22:17:34Z</time>
<speed>5.1</speed>
</trkpt>
<trkpt lat="35.888196" lon="139.704772">
<ele>5.6</ele>
<time>2026-04-02T22:17:43Z</time>
<speed>5.0</speed>
</trkpt>
<trkpt lat="35.887907" lon="139.704887">
<ele>5.6</ele>
<time>2026-04-02T22:17:51Z</time>
<speed>5.4</speed>
</trkpt>
<trkpt lat="35.887520" lon="139.704962">
<ele>5.6</ele>
<time>2026-04-02T22:17:59Z</time>
<speed>5.0</speed>
</trkpt>
<trkpt lat="35.887323" lon="139.704970">
<ele>5.6</ele>
<time>2026-04-02T22:18:04Z</time>
<speed>4.3</speed>
</trkpt>
<trkpt lat="35.886988" lon="139.704962">
<ele>5.8</ele>
<time>2026-04-02T22:18:06Z</time>
<speed>4.2</speed>
</trkpt>
<trkpt lat="35.886771" lon="139.704951">
<ele>6.4</ele>
<time>2026-04-02T22:18:13Z</time>
<speed>6.4</speed>
</trkpt>
<trkpt lat="35.886651" lon="139.704973">
<ele>6.4</ele>
<time>2026-04-02T22:18:14Z</time>
<speed>6.4</speed>
</trkpt>
<trkpt lat="35.886551" lon="139.704981">
<ele>6.4</ele>
<time>2026-04-02T22:18:19Z</time>
<speed>5.4</speed>
</trkpt>
<trkpt lat="35.886416" lon="139.705043">
<ele>6.4</ele>
<time>2026-04-02T22:18:20Z</time>
<speed>5.2</speed>
</trkpt>
<trkpt lat="35.886262" lon="139.705144">
<ele>6.2</ele>
<time>2026-04-02T22:18:23Z</time>
<speed>4.9</speed>
</trkpt>
<trkpt lat="35.886112" lon="139.705230">
<ele>5.6</ele>
<time>2026-04-02T22:18:26Z</time>
<speed>5.1</speed>
</trkpt>
<trkpt lat="35.885899" lon="139.705391">
<ele>5.4</ele>
<time>2026-04-02T22:18:32Z</time>
<speed>5.1</speed>
</trkpt>
<trkpt lat="35.885747" lon="139.705477">
<ele>5.4</ele>
<time>2026-04-02T22:18:35Z</time>
<speed>5.3</speed>
</trkpt>
<trkpt lat="35.885651" lon="139.705549">
<ele>5.4</ele>
<time>2026-04-02T22:18:37Z</time>
<speed>5.3</speed>
</trkpt>
<trkpt lat="35.885397" lon="139.705721">
<ele>5.4</ele>
<time>2026-04-02T22:18:44Z</time>
<speed>5.3</speed>
</trkpt>
<trkpt lat="35.885045" lon="139.705992">
<ele>5.4</ele>
<time>2026-04-02T22:18:54Z</time>
<speed>5.2</speed>
</trkpt>
<trkpt lat="35.884878" lon="139.706105">
<ele>5.4</ele>
<time>2026-04-02T22:18:57Z</time>
<speed>5.3</speed>
</trkpt>
<trkpt lat="35.884778" lon="139.706209">
<ele>5.6</ele>
<time>2026-04-02T22:19:01Z</time>
<speed>5.5</speed>
</trkpt>
<trkpt lat="35.884706" lon="139.706295">
<ele>5.6</ele>
<time>2026-04-02T22:19:02Z</time>
<speed>5.2</speed>
</trkpt>
<trkpt lat="35.884641" lon="139.706448">
<ele>5.6</ele>
<time>2026-04-02T22:19:05Z</time>
<speed>4.9</speed>
</trkpt>
<trkpt lat="35.884589" lon="139.706598">
<ele>5.6</ele>
<time>2026-04-02T22:19:06Z</time>
<speed>4.9</speed>
</trkpt>
<trkpt lat="35.884558" lon="139.706706">
<ele>5.6</ele>
<time>2026-04-02T22:19:10Z</time>
<speed>4.9</speed>
</trkpt>
<trkpt lat="35.884567" lon="139.706840">
<ele>5.6</ele>
<time>2026-04-02T22:19:11Z</time>
<speed>4.9</speed>
</trkpt>
<trkpt lat="35.884595" lon="139.706987">
<ele>5.6</ele>
<time>2026-04-02T22:19:14Z</time>
<speed>5.2</speed>
</trkpt>
<trkpt lat="35.884647" lon="139.707202">
<ele>5.6</ele>
<time>2026-04-02T22:19:17Z</time>
<speed>4.7</speed>
</trkpt>
<trkpt lat="35.884674" lon="139.707371">
<ele>5.6</ele>
<time>2026-04-02T22:19:23Z</time>
<speed>4.2</speed>
</trkpt>
<trkpt lat="35.884658" lon="139.707486">
<ele>5.6</ele>
<time>2026-04-02T22:19:25Z</time>
<speed>4.1</speed>
</trkpt>
<trkpt lat="35.884624" lon="139.707591">
<ele>5.4</ele>
<time>2026-04-02T22:19:27Z</time>
<speed>4.5</speed>
</trkpt>
<trkpt lat="35.884578" lon="139.707744">
<ele>5.4</ele>
<time>2026-04-02T22:19:30Z</time>
<speed>5.1</speed>
</trkpt>
<trkpt lat="35.884528" lon="139.707918">
<ele>5.4</ele>
<time>2026-04-02T22:19:33Z</time>
<speed>4.9</speed>
</trkpt>
<trkpt lat="35.884487" lon="139.708118">
<ele>5.4</ele>
<time>2026-04-02T22:19:38Z</time>
<speed>5.0</speed>
</trkpt>
<trkpt lat="35.884471" lon="139.708170">
<ele>5.4</ele>
<time>2026-04-02T22:19:39Z</time>
<speed>5.1</speed>
</trkpt>
<trkpt lat="35.884385" lon="139.708433">
<ele>5.4</ele>
<time>2026-04-02T22:19:44Z</time>
<speed>5.1</speed>
</trkpt>
<trkpt lat="35.884326" lon="139.708588">
<ele>5.4</ele>
<time>2026-04-02T22:19:47Z</time>
<speed>4.7</speed>
</trkpt>
<trkpt lat="35.884273" lon="139.708670">
<ele>5.4</ele>
<time>2026-04-02T22:19:49Z</time>
<speed>4.9</speed>
</trkpt>
<trkpt lat="35.884167" lon="139.708752">
<ele>5.4</ele>
<time>2026-04-02T22:19:53Z</time>
<speed>5.2</speed>
</trkpt>
<trkpt lat="35.884017" lon="139.708782">
<ele>5.4</ele>
<time>2026-04-02T22:19:54Z</time>
<speed>5.2</speed>
</trkpt>
<trkpt lat="35.883852" lon="139.708878">
<ele>5.4</ele>
<time>2026-04-02T22:19:59Z</time>
<speed>4.8</speed>
</trkpt>
<trkpt lat="35.883733" lon="139.708953">
<ele>5.4</ele>
<time>2026-04-02T22:20:00Z</time>
<speed>5.2</speed>
</trkpt>
<trkpt lat="35.883559" lon="139.709079">
<ele>5.4</ele>
<time>2026-04-02T22:20:07Z</time>
<speed>5.0</speed>
</trkpt>
<trkpt lat="35.883411" lon="139.709235">
<ele>5.4</ele>
<time>2026-04-02T22:20:09Z</time>
<speed>4.3</speed>
</trkpt>
<trkpt lat="35.883315" lon="139.709342">
<ele>5.2</ele>
<time>2026-04-02T22:20:13Z</time>
<speed>1.4</speed>
</trkpt>
<trkpt lat="35.883272" lon="139.709401">
<ele>5.2</ele>
<time>2026-04-02T22:20:17Z</time>
<speed>1.9</speed>
</trkpt>
<trkpt lat="35.883228" lon="139.709474">
<ele>5.2</ele>
<time>2026-04-02T22:20:21Z</time>
<speed>3.9</speed>
</trkpt>
<trkpt lat="35.883165" lon="139.709592">
<ele>5.0</ele>
<time>2026-04-02T22:20:26Z</time>
<speed>4.2</speed>
</trkpt>
<trkpt lat="35.883100" lon="139.709702">
<ele>5.0</ele>
<time>2026-04-02T22:20:27Z</time>
<speed>4.5</speed>
</trkpt>
<trkpt lat="35.883031" lon="139.709846">
<ele>5.0</ele>
<time>2026-04-02T22:20:33Z</time>
<speed>5.1</speed>
</trkpt>
<trkpt lat="35.882944" lon="139.710101">
<ele>5.0</ele>
<time>2026-04-02T22:20:40Z</time>
<speed>5.1</speed>
</trkpt>
<trkpt lat="35.882887" lon="139.710396">
<ele>5.0</ele>
<time>2026-04-02T22:20:47Z</time>
<speed>5.0</speed>
</trkpt>
<trkpt lat="35.882876" lon="139.710627">
<ele>4.8</ele>
<time>2026-04-02T22:20:55Z</time>
<speed>5.2</speed>
</trkpt>
<trkpt lat="35.882963" lon="139.711606">
<ele>4.8</ele>
<time>2026-04-02T22:21:03Z</time>
<speed>5.0</speed>
</trkpt>
<trkpt lat="35.883022" lon="139.712081">
<ele>5.0</ele>
<time>2026-04-02T22:21:12Z</time>
<speed>2.3</speed>
</trkpt>
<trkpt lat="35.883039" lon="139.712268">
<ele>5.0</ele>
<time>2026-04-02T22:21:16Z</time>
<speed>1.6</speed>
</trkpt>
<trkpt lat="35.883052" lon="139.712322">
<ele>4.6</ele>
<time>2026-04-02T22:21:20Z</time>
<speed>3.7</speed>
</trkpt>
<trkpt lat="35.883096" lon="139.712437">
<ele>4.4</ele>
<time>2026-04-02T22:21:22Z</time>
<speed>4.1</speed>
</trkpt>
<trkpt lat="35.883172" lon="139.712569">
<ele>4.2</ele>
<time>2026-04-02T22:21:24Z</time>
<speed>4.5</speed>
</trkpt>
<trkpt lat="35.883285" lon="139.712754">
<ele>4.2</ele>
<time>2026-04-02T22:21:29Z</time>
<speed>4.2</speed>
</trkpt>
<trkpt lat="35.883331" lon="139.712850">
<ele>4.2</ele>
<time>2026-04-02T22:21:35Z</time>
<speed>3.2</speed>
</trkpt>
<trkpt lat="35.883385" lon="139.712915">
<ele>4.4</ele>
<time>2026-04-02T22:21:37Z</time>
<speed>1.6</speed>
</trkpt>
<trkpt lat="35.883422" lon="139.712963">
<ele>4.4</ele>
<time>2026-04-02T22:21:41Z</time>
<speed>2.8</speed>
</trkpt>
<trkpt lat="35.883452" lon="139.713022">
<ele>4.4</ele>
<time>2026-04-02T22:21:43Z</time>
<speed>4.0</speed>
</trkpt>
<trkpt lat="35.883522" lon="139.713103">
<ele>4.4</ele>
<time>2026-04-02T22:21:46Z</time>
<speed>4.3</speed>
</trkpt>
<trkpt lat="35.883548" lon="139.713180">
<ele>4.6</ele>
<time>2026-04-02T22:21:48Z</time>
<speed>4.5</speed>
</trkpt>
<trkpt lat="35.883583" lon="139.713341">
<ele>4.6</ele>
<time>2026-04-02T22:21:51Z</time>
<speed>4.5</speed>
</trkpt>
<trkpt lat="35.883585" lon="139.713432">
<ele>4.6</ele>
<time>2026-04-02T22:21:53Z</time>
<speed>4.6</speed>
</trkpt>
<trkpt lat="35.883552" lon="139.713639">
<ele>4.6</ele>
<time>2026-04-02T22:21:57Z</time>
<speed>4.2</speed>
</trkpt>
<trkpt lat="35.883474" lon="139.713921">
<ele>4.8</ele>
<time>2026-04-02T22:22:03Z</time>
<speed>5.1</speed>
</trkpt>
<trkpt lat="35.883385" lon="139.714299">
<ele>4.8</ele>
<time>2026-04-02T22:22:10Z</time>
<speed>5.0</speed>
</trkpt>
<trkpt lat="35.883298" lon="139.714674">
<ele>4.8</ele>
<time>2026-04-02T22:22:17Z</time>
<speed>3.5</speed>
</trkpt>
<trkpt lat="35.883252" lon="139.714867">
<ele>4.4</ele>
<time>2026-04-02T22:22:23Z</time>
<speed>1.9</speed>
</trkpt>
<trkpt lat="35.883226" lon="139.714940">
<ele>4.4</ele>
<time>2026-04-02T22:22:25Z</time>
<speed>2.9</speed>
</trkpt>
<trkpt lat="35.883196" lon="139.715074">
<ele>4.4</ele>
<time>2026-04-02T22:22:28Z</time>
<speed>3.6</speed>
</trkpt>
<trkpt lat="35.883168" lon="139.715232">
<ele>4.4</ele>
<time>2026-04-02T22:22:33Z</time>
<speed>4.3</speed>
</trkpt>
<trkpt lat="35.883141" lon="139.715329">
<ele>4.4</ele>
<time>2026-04-02T22:22:34Z</time>
<speed>4.3</speed>
</trkpt>
<trkpt lat="35.883109" lon="139.715463">
<ele>4.4</ele>
<time>2026-04-02T22:22:38Z</time>
<speed>4.3</speed>
</trkpt>
<trkpt lat="35.883074" lon="139.715584">
<ele>4.4</ele>
<time>2026-04-02T22:22:41Z</time>
<speed>4.3</speed>
</trkpt>
<trkpt lat="35.883055" lon="139.715672">
<ele>4.4</ele>
<time>2026-04-02T22:22:43Z</time>
<speed>4.3</speed>
</trkpt>
<trkpt lat="35.883042" lon="139.715731">
<ele>4.2</ele>
<time>2026-04-02T22:22:44Z</time>
<speed>4.6</speed>
</trkpt>
<trkpt lat="35.883005" lon="139.715868">
<ele>4.2</ele>
<time>2026-04-02T22:22:47Z</time>
<speed>4.8</speed>
</trkpt>
<trkpt lat="35.882978" lon="139.715956">
<ele>4.2</ele>
<time>2026-04-02T22:22:49Z</time>
<speed>4.9</speed>
</trkpt>
<trkpt lat="35.882935" lon="139.716053">
<ele>4.2</ele>
<time>2026-04-02T22:22:50Z</time>
<speed>4.6</speed>
</trkpt>
<trkpt lat="35.882846" lon="139.716147">
<ele>4.4</ele>
<time>2026-04-02T22:22:55Z</time>
<speed>4.8</speed>
</trkpt>
<trkpt lat="35.882761" lon="139.716188">
<ele>4.4</ele>
<time>2026-04-02T22:22:56Z</time>
<speed>5.0</speed>
</trkpt>
<trkpt lat="35.882718" lon="139.716203">
<ele>4.4</ele>
<time>2026-04-02T22:22:57Z</time>
<speed>4.9</speed>
</trkpt>
<trkpt lat="35.882542" lon="139.716243">
<ele>4.6</ele>
<time>2026-04-02T22:23:01Z</time>
<speed>5.2</speed>
</trkpt>
<trkpt lat="35.882309" lon="139.716292">
<ele>4.8</ele>
<time>2026-04-02T22:23:10Z</time>
<speed>5.4</speed>
</trkpt>
<trkpt lat="35.882174" lon="139.716343">
<ele>4.6</ele>
<time>2026-04-02T22:23:15Z</time>
<speed>5.3</speed>
</trkpt>
<trkpt lat="35.882014" lon="139.716429">
<ele>4.6</ele>
<time>2026-04-02T22:23:16Z</time>
<speed>5.2</speed>
</trkpt>
<trkpt lat="35.881803" lon="139.716584">
<ele>4.4</ele>
<time>2026-04-02T22:23:22Z</time>
<speed>4.4</speed>
</trkpt>
<trkpt lat="35.881431" lon="139.716879">
<ele>4.2</ele>
<time>2026-04-02T22:23:28Z</time>
<speed>1.4</speed>
</trkpt>
<trkpt lat="35.881373" lon="139.716941">
<ele>4.4</ele>
<time>2026-04-02T22:23:35Z</time>
<speed>1.9</speed>
</trkpt>
<trkpt lat="35.881342" lon="139.716960">
<ele>4.4</ele>
<time>2026-04-02T22:23:37Z</time>
<speed>0.4</speed>
</trkpt>
<trkpt lat="35.881277" lon="139.716960">
<ele>4.4</ele>
<time>2026-04-02T22:23:50Z</time>
<speed>3.9</speed>
</trkpt>
<trkpt lat="35.881114" lon="139.717096">
<ele>4.4</ele>
<time>2026-04-02T22:23:54Z</time>
<speed>4.1</speed>
</trkpt>
<trkpt lat="35.880905" lon="139.717273">
<ele>4.0</ele>
<time>2026-04-02T22:24:01Z</time>
<speed>4.6</speed>
</trkpt>
<trkpt lat="35.880673" lon="139.717458">
<ele>4.0</ele>
<time>2026-04-02T22:24:08Z</time>
<speed>4.8</speed>
</trkpt>
<trkpt lat="35.880301" lon="139.717740">
<ele>4.0</ele>
<time>2026-04-02T22:24:18Z</time>
<speed>4.7</speed>
</trkpt>
<trkpt lat="35.880166" lon="139.717845">
<ele>3.8</ele>
<time>2026-04-02T22:24:25Z</time>
<speed>4.3</speed>
</trkpt>
<trkpt lat="35.879886" lon="139.718137">
<ele>3.8</ele>
<time>2026-04-02T22:24:33Z</time>
<speed>2.7</speed>
</trkpt>
<trkpt lat="35.879786" lon="139.718239">
<ele>3.8</ele>
<time>2026-04-02T22:24:35Z</time>
<speed>3.6</speed>
</trkpt>
<trkpt lat="35.879688" lon="139.718365">
<ele>3.8</ele>
<time>2026-04-02T22:24:39Z</time>
<speed>4.3</speed>
</trkpt>
<trkpt lat="35.879593" lon="139.718464">
<ele>3.6</ele>
<time>2026-04-02T22:24:43Z</time>
<speed>4.7</speed>
</trkpt>
<trkpt lat="35.879499" lon="139.718569">
<ele>3.6</ele>
<time>2026-04-02T22:24:45Z</time>
<speed>4.7</speed>
</trkpt>
<trkpt lat="35.879401" lon="139.718668">
<ele>3.6</ele>
<time>2026-04-02T22:24:47Z</time>
<speed>4.7</speed>
</trkpt>
<trkpt lat="35.879241" lon="139.718848">
<ele>3.6</ele>
<time>2026-04-02T22:24:55Z</time>
<speed>2.1</speed>
</trkpt>
<trkpt lat="35.879182" lon="139.718918">
<ele>3.6</ele>
<time>2026-04-02T22:24:59Z</time>
<speed>1.9</speed>
</trkpt>
<trkpt lat="35.879131" lon="139.718944">
<ele>3.6</ele>
<time>2026-04-02T22:25:03Z</time>
<speed>3.0</speed>
</trkpt>
<trkpt lat="35.879115" lon="139.718917">
<ele>3.6</ele>
<time>2026-04-02T22:25:04Z</time>
<speed>4.2</speed>
</trkpt>
<trkpt lat="35.879017" lon="139.718730">
<ele>3.4</ele>
<time>2026-04-02T22:25:09Z</time>
<speed>4.9</speed>
</trkpt>
<trkpt lat="35.878873" lon="139.718405">
<ele>3.2</ele>
<time>2026-04-02T22:25:15Z</time>
<speed>4.9</speed>
</trkpt>
<trkpt lat="35.878841" lon="139.718330">
<ele>3.0</ele>
<time>2026-04-02T22:25:17Z</time>
<speed>5.0</speed>
</trkpt>
<trkpt lat="35.878810" lon="139.718255">
<ele>2.8</ele>
<time>2026-04-02T22:25:18Z</time>
<speed>4.9</speed>
</trkpt>
<trkpt lat="35.878769" lon="139.718145">
<ele>2.4</ele>
<time>2026-04-02T22:25:22Z</time>
<speed>5.0</speed>
</trkpt>
<trkpt lat="35.878723" lon="139.718038">
<ele>2.2</ele>
<time>2026-04-02T22:25:23Z</time>
<speed>4.8</speed>
</trkpt>
<trkpt lat="35.878645" lon="139.717858">
<ele>2.0</ele>
<time>2026-04-02T22:25:25Z</time>
<speed>4.8</speed>
</trkpt>
<trkpt lat="35.878460" lon="139.717426">
<ele>1.4</ele>
<time>2026-04-02T22:25:36Z</time>
<speed>4.9</speed>
</trkpt>
<trkpt lat="35.878284" lon="139.716994">
<ele>1.4</ele>
<time>2026-04-02T22:25:45Z</time>
<speed>2.8</speed>
</trkpt>
<trkpt lat="35.878228" lon="139.716889">
<ele>1.4</ele>
<time>2026-04-02T22:25:49Z</time>
<speed>1.1</speed>
</trkpt>
<trkpt lat="35.878221" lon="139.716866">
<ele>1.2</ele>
<time>2026-04-02T22:25:53Z</time>
<speed>0.1</speed>
</trkpt>
<trkpt lat="35.878203" lon="139.716816">
<ele>0.4</ele>
<time>2026-04-02T22:26:43Z</time>
<speed>3.0</speed>
</trkpt>
<trkpt lat="35.878198" lon="139.716783">
<ele>0.4</ele>
<time>2026-04-02T22:26:44Z</time>
<speed>2.9</speed>
</trkpt>
<trkpt lat="35.878190" lon="139.716752">
<ele>0.4</ele>
<time>2026-04-02T22:26:45Z</time>
<speed>3.0</speed>
</trkpt>
<trkpt lat="35.878180" lon="139.716721">
<ele>0.4</ele>
<time>2026-04-02T22:26:46Z</time>
<speed>3.4</speed>
</trkpt>
<trkpt lat="35.878163" lon="139.716689">
<ele>0.4</ele>
<time>2026-04-02T22:26:47Z</time>
<speed>3.6</speed>
</trkpt>
<trkpt lat="35.878099" lon="139.716551">
<ele>0.6</ele>
<time>2026-04-02T22:26:51Z</time>
<speed>4.1</speed>
</trkpt>
<trkpt lat="35.878026" lon="139.716391">
<ele>0.6</ele>
<time>2026-04-02T22:26:55Z</time>
<speed>4.5</speed>
</trkpt>
<trkpt lat="35.877946" lon="139.716216">
<ele>0.6</ele>
<time>2026-04-02T22:26:59Z</time>
<speed>4.4</speed>
</trkpt>
<trkpt lat="35.877926" lon="139.716174">
<ele>0.6</ele>
<time>2026-04-02T22:27:00Z</time>
<speed>4.2</speed>
</trkpt>
<trkpt lat="35.877859" lon="139.716008">
<ele>0.8</ele>
<time>2026-04-02T22:27:04Z</time>
<speed>3.4</speed>
</trkpt>
<trkpt lat="35.877805" lon="139.715871">
<ele>0.8</ele>
<time>2026-04-02T22:27:08Z</time>
<speed>3.9</speed>
</trkpt>
<trkpt lat="35.877741" lon="139.715717">
<ele>0.6</ele>
<time>2026-04-02T22:27:12Z</time>
<speed>4.6</speed>
</trkpt>
<trkpt lat="35.877719" lon="139.715674">
<ele>0.6</ele>
<time>2026-04-02T22:27:13Z</time>
<speed>4.8</speed>
</trkpt>
<trkpt lat="35.877618" lon="139.715438">
<ele>0.6</ele>
<time>2026-04-02T22:27:18Z</time>
<speed>4.9</speed>
</trkpt>
<trkpt lat="35.877535" lon="139.715244">
<ele>0.6</ele>
<time>2026-04-02T22:27:22Z</time>
<speed>5.1</speed>
</trkpt>
<trkpt lat="35.877319" lon="139.714749">
<ele>0.8</ele>
<time>2026-04-02T22:27:32Z</time>
<speed>5.1</speed>
</trkpt>
<trkpt lat="35.877140" lon="139.714352">
<ele>0.4</ele>
<time>2026-04-02T22:27:40Z</time>
<speed>5.2</speed>
</trkpt>
<trkpt lat="35.877118" lon="139.714301">
<ele>0.4</ele>
<time>2026-04-02T22:27:41Z</time>
<speed>5.1</speed>
</trkpt>
<trkpt lat="35.876926" lon="139.713850">
<ele>0.4</ele>
<time>2026-04-02T22:27:50Z</time>
<speed>4.3</speed>
</trkpt>
<trkpt lat="35.876802" lon="139.713549">
<ele>0.4</ele>
<time>2026-04-02T22:27:57Z</time>
<speed>0.6</speed>
</trkpt>
<trkpt lat="35.876774" lon="139.713498">
<ele>0.0</ele>
<time>2026-04-02T22:28:06Z</time>
<speed>2.4</speed>
</trkpt>
<trkpt lat="35.876755" lon="139.713486">
<ele>0.0</ele>
<time>2026-04-02T22:28:07Z</time>
<speed>2.2</speed>
</trkpt>
<trkpt lat="35.876735" lon="139.713484">
<ele>-0.2</ele>
<time>2026-04-02T22:28:08Z</time>
<speed>2.0</speed>
</trkpt>
<trkpt lat="35.876728" lon="139.713550">
<ele>-0.2</ele>
<time>2026-04-02T22:28:11Z</time>
<speed>3.8</speed>
</trkpt>
<trkpt lat="35.876696" lon="139.713596">
<ele>-0.2</ele>
<time>2026-04-02T22:28:15Z</time>
<speed>3.9</speed>
</trkpt>
<trkpt lat="35.876650" lon="139.713773">
<ele>-0.2</ele>
<time>2026-04-02T22:28:16Z</time>
<speed>3.6</speed>
</trkpt>
<trkpt lat="35.876626" lon="139.713934">
<ele>0.0</ele>
<time>2026-04-02T22:28:20Z</time>
<speed>2.5</speed>
</trkpt>
<trkpt lat="35.876611" lon="139.714012">
<ele>0.6</ele>
<time>2026-04-02T22:28:24Z</time>
<speed>1.6</speed>
</trkpt>
<trkpt lat="35.876574" lon="139.714031">
<ele>1.2</ele>
<time>2026-04-02T22:28:26Z</time>
<speed>3.1</speed>
</trkpt>
<trkpt lat="35.876522" lon="139.714023">
<ele>1.6</ele>
<time>2026-04-02T22:28:28Z</time>
<speed>3.8</speed>
</trkpt>
<trkpt lat="35.876435" lon="139.714028">
<ele>2.2</ele>
<time>2026-04-02T22:28:31Z</time>
<speed>4.2</speed>
</trkpt>
<trkpt lat="35.876359" lon="139.714031">
<ele>2.2</ele>
<time>2026-04-02T22:28:33Z</time>
<speed>4.0</speed>
</trkpt>
<trkpt lat="35.876263" lon="139.714015">
<ele>2.4</ele>
<time>2026-04-02T22:28:37Z</time>
<speed>4.3</speed>
</trkpt>
<trkpt lat="35.876207" lon="139.713950">
<ele>2.6</ele>
<time>2026-04-02T22:28:38Z</time>
<speed>4.3</speed>
</trkpt>
<trkpt lat="35.876087" lon="139.713634">
<ele>2.8</ele>
<time>2026-04-02T22:28:46Z</time>
<speed>3.6</speed>
</trkpt>
<trkpt lat="35.875983" lon="139.713301">
<ele>2.8</ele>
<time>2026-04-02T22:28:53Z</time>
<speed>3.1</speed>
</trkpt>
<trkpt lat="35.875998" lon="139.713188">
<ele>3.0</ele>
<time>2026-04-02T22:28:58Z</time>
<speed>3.9</speed>
</trkpt>
<trkpt lat="35.876124" lon="139.712904">
<ele>3.0</ele>
<time>2026-04-02T22:29:05Z</time>
<speed>4.5</speed>
</trkpt>
<trkpt lat="35.876154" lon="139.712671">
<ele>3.0</ele>
<time>2026-04-02T22:29:10Z</time>
<speed>4.6</speed>
</trkpt>
<trkpt lat="35.876109" lon="139.712384">
<ele>3.0</ele>
<time>2026-04-02T22:29:17Z</time>
<speed>4.4</speed>
</trkpt>
<trkpt lat="35.875963" lon="139.711950">
<ele>3.0</ele>
<time>2026-04-02T22:29:25Z</time>
<speed>4.3</speed>
</trkpt>
<trkpt lat="35.875801" lon="139.711818">
<ele>3.0</ele>
<time>2026-04-02T22:29:30Z</time>
<speed>4.4</speed>
</trkpt>
<trkpt lat="35.875568" lon="139.711705">
<ele>3.0</ele>
<time>2026-04-02T22:29:37Z</time>
<speed>3.9</speed>
</trkpt>
<trkpt lat="35.875335" lon="139.711633">
<ele>3.0</ele>
<time>2026-04-02T22:29:44Z</time>
<speed>4.4</speed>
</trkpt>
<trkpt lat="35.875261" lon="139.711630">
<ele>3.0</ele>
<time>2026-04-02T22:29:51Z</time>
<speed>3.7</speed>
</trkpt>
<trkpt lat="35.874924" lon="139.711702">
<ele>3.0</ele>
<time>2026-04-02T22:29:56Z</time>
<speed>0.0</speed>
</trkpt>
<trkpt lat="35.874890" lon="139.711708">
<ele>2.4</ele>
<time>2026-04-02T22:31:49Z</time>
<speed>2.4</speed>
</trkpt>
<trkpt lat="35.874855" lon="139.711713">
<ele>2.4</ele>
<time>2026-04-02T22:31:50Z</time>
<speed>3.1</speed>
</trkpt>
<trkpt lat="35.874777" lon="139.711735">
<ele>2.4</ele>
<time>2026-04-02T22:31:51Z</time>
<speed>5.3</speed>
</trkpt>
<trkpt lat="35.874629" lon="139.711761">
<ele>2.4</ele>
<time>2026-04-02T22:31:55Z</time>
<speed>7.2</speed>
</trkpt>
<trkpt lat="35.874407" lon="139.711823">
<ele>2.2</ele>
<time>2026-04-02T22:31:59Z</time>
<speed>6.8</speed>
</trkpt>
<trkpt lat="35.874229" lon="139.711869">
<ele>2.2</ele>
<time>2026-04-02T22:32:00Z</time>
<speed>6.6</speed>
</trkpt>
<trkpt lat="35.874048" lon="139.711914">
<ele>1.0</ele>
<time>2026-04-02T22:32:04Z</time>
<speed>6.2</speed>
</trkpt>
<trkpt lat="35.873848" lon="139.711963">
<ele>-0.2</ele>
<time>2026-04-02T22:32:08Z</time>
<speed>5.5</speed>
</trkpt>
<trkpt lat="35.873664" lon="139.712014">
<ele>-0.4</ele>
<time>2026-04-02T22:32:12Z</time>
<speed>3.9</speed>
</trkpt>
<trkpt lat="35.873590" lon="139.712030">
<ele>-0.4</ele>
<time>2026-04-02T22:32:14Z</time>
<speed>3.4</speed>
</trkpt>
<trkpt lat="35.873507" lon="139.712059">
<ele>-0.2</ele>
<time>2026-04-02T22:32:17Z</time>
<speed>4.3</speed>
</trkpt>
<trkpt lat="35.873383" lon="139.712089">
<ele>0.2</ele>
<time>2026-04-02T22:32:20Z</time>
<speed>4.8</speed>
</trkpt>
<trkpt lat="35.873279" lon="139.712118">
<ele>1.0</ele>
<time>2026-04-02T22:32:22Z</time>
<speed>5.1</speed>
</trkpt>
<trkpt lat="35.873175" lon="139.712150">
<ele>2.0</ele>
<time>2026-04-02T22:32:25Z</time>
<speed>5.7</speed>
</trkpt>
<trkpt lat="35.873053" lon="139.712191">
<ele>2.2</ele>
<time>2026-04-02T22:32:26Z</time>
<speed>5.7</speed>
</trkpt>
<trkpt lat="35.872773" lon="139.712287">
<ele>2.6</ele>
<time>2026-04-02T22:32:34Z</time>
<speed>4.9</speed>
</trkpt>
<trkpt lat="35.872534" lon="139.712373">
<ele>2.6</ele>
<time>2026-04-02T22:32:39Z</time>
<speed>4.9</speed>
</trkpt>
<trkpt lat="35.872340" lon="139.712432">
<ele>2.6</ele>
<time>2026-04-02T22:32:44Z</time>
<speed>4.9</speed>
</trkpt>
<trkpt lat="35.872040" lon="139.712547">
<ele>2.8</ele>
<time>2026-04-02T22:32:51Z</time>
<speed>5.1</speed>
</trkpt>
<trkpt lat="35.871916" lon="139.712590">
<ele>2.8</ele>
<time>2026-04-02T22:32:52Z</time>
<speed>4.9</speed>
</trkpt>
<trkpt lat="35.871666" lon="139.712684">
<ele>2.8</ele>
<time>2026-04-02T22:33:00Z</time>
<speed>5.2</speed>
</trkpt>
<trkpt lat="35.871408" lon="139.712781">
<ele>2.8</ele>
<time>2026-04-02T22:33:06Z</time>
<speed>4.8</speed>
</trkpt>
<trkpt lat="35.871175" lon="139.712885">
<ele>2.8</ele>
<time>2026-04-02T22:33:15Z</time>
<speed>4.6</speed>
</trkpt>
<trkpt lat="35.870769" lon="139.713140">
<ele>2.6</ele>
<time>2026-04-02T22:33:24Z</time>
<speed>4.3</speed>
</trkpt>
<trkpt lat="35.870545" lon="139.713245">
<ele>2.4</ele>
<time>2026-04-02T22:33:31Z</time>
<speed>3.3</speed>
</trkpt>
<trkpt lat="35.870469" lon="139.713331">
<ele>2.4</ele>
<time>2026-04-02T22:33:33Z</time>
<speed>3.5</speed>
</trkpt>
<trkpt lat="35.870427" lon="139.713430">
<ele>2.4</ele>
<time>2026-04-02T22:33:35Z</time>
<speed>4.2</speed>
</trkpt>
<trkpt lat="35.870427" lon="139.713596">
<ele>2.4</ele>
<time>2026-04-02T22:33:37Z</time>
<speed>4.1</speed>
</trkpt>
<trkpt lat="35.870419" lon="139.713789">
<ele>2.4</ele>
<time>2026-04-02T22:33:41Z</time>
<speed>3.8</speed>
</trkpt>
<trkpt lat="35.870297" lon="139.713848">
<ele>2.4</ele>
<time>2026-04-02T22:33:45Z</time>
<speed>4.6</speed>
</trkpt>
<trkpt lat="35.870034" lon="139.713964">
<ele>2.4</ele>
<time>2026-04-02T22:33:51Z</time>
<speed>4.9</speed>
</trkpt>
<trkpt lat="35.869608" lon="139.714143">
<ele>2.4</ele>
<time>2026-04-02T22:34:02Z</time>
<speed>4.9</speed>
</trkpt>
<trkpt lat="35.869239" lon="139.714299">
<ele>2.4</ele>
<time>2026-04-02T22:34:09Z</time>
<speed>4.5</speed>
</trkpt>
<trkpt lat="35.869069" lon="139.714374">
<ele>2.2</ele>
<time>2026-04-02T22:34:16Z</time>
<speed>4.1</speed>
</trkpt>
<trkpt lat="35.869041" lon="139.714441">
<ele>2.2</ele>
<time>2026-04-02T22:34:17Z</time>
<speed>4.4</speed>
</trkpt>
<trkpt lat="35.869049" lon="139.714559">
<ele>2.2</ele>
<time>2026-04-02T22:34:19Z</time>
<speed>4.5</speed>
</trkpt>
<trkpt lat="35.869102" lon="139.714752">
<ele>2.4</ele>
<time>2026-04-02T22:34:23Z</time>
<speed>4.3</speed>
</trkpt>
<trkpt lat="35.869156" lon="139.714940">
<ele>2.4</ele>
<time>2026-04-02T22:34:27Z</time>
<speed>4.6</speed>
</trkpt>
<trkpt lat="35.869251" lon="139.715172">
<ele>2.8</ele>
<time>2026-04-02T22:34:32Z</time>
<speed>4.7</speed>
</trkpt>
<trkpt lat="35.869285" lon="139.715267">
<ele>2.8</ele>
<time>2026-04-02T22:34:34Z</time>
<speed>4.5</speed>
</trkpt>
<trkpt lat="35.869402" lon="139.715582">
<ele>3.0</ele>
<time>2026-04-02T22:34:41Z</time>
<speed>4.0</speed>
</trkpt>
<trkpt lat="35.869434" lon="139.715662">
<ele>3.0</ele>
<time>2026-04-02T22:34:43Z</time>
<speed>4.4</speed>
</trkpt>
<trkpt lat="35.869551" lon="139.715968">
<ele>3.0</ele>
<time>2026-04-02T22:34:50Z</time>
<speed>4.1</speed>
</trkpt>
<trkpt lat="35.869666" lon="139.716251">
<ele>2.6</ele>
<time>2026-04-02T22:34:57Z</time>
<speed>4.5</speed>
</trkpt>
<trkpt lat="35.869829" lon="139.716656">
<ele>2.6</ele>
<time>2026-04-02T22:35:06Z</time>
<speed>4.6</speed>
</trkpt>
<trkpt lat="35.870013" lon="139.717110">
<ele>2.6</ele>
<time>2026-04-02T22:35:16Z</time>
<speed>4.6</speed>
</trkpt>
<trkpt lat="35.870197" lon="139.717573">
<ele>2.6</ele>
<time>2026-04-02T22:35:26Z</time>
<speed>4.3</speed>
</trkpt>
<trkpt lat="35.870313" lon="139.717871">
<ele>2.4</ele>
<time>2026-04-02T22:35:33Z</time>
<speed>4.6</speed>
</trkpt>
<trkpt lat="35.870509" lon="139.718373">
<ele>2.2</ele>
<time>2026-04-02T22:35:44Z</time>
<speed>4.2</speed>
</trkpt>
<trkpt lat="35.870658" lon="139.718745">
<ele>2.2</ele>
<time>2026-04-02T22:35:53Z</time>
<speed>4.6</speed>
</trkpt>
<trkpt lat="35.870816" lon="139.719106">
<ele>2.2</ele>
<time>2026-04-02T22:36:01Z</time>
<speed>4.6</speed>
</trkpt>
<trkpt lat="35.870942" lon="139.719305">
<ele>2.2</ele>
<time>2026-04-02T22:36:06Z</time>
<speed>4.6</speed>
</trkpt>
<trkpt lat="35.871031" lon="139.719414">
<ele>2.2</ele>
<time>2026-04-02T22:36:09Z</time>
<speed>4.6</speed>
</trkpt>
<trkpt lat="35.871095" lon="139.719479">
<ele>2.2</ele>
<time>2026-04-02T22:36:11Z</time>
<speed>4.4</speed>
</trkpt>
<trkpt lat="35.871252" lon="139.719625">
<ele>2.2</ele>
<time>2026-04-02T22:36:16Z</time>
<speed>3.8</speed>
</trkpt>
<trkpt lat="35.871434" lon="139.719746">
<ele>2.0</ele>
<time>2026-04-02T22:36:22Z</time>
<speed>4.4</speed>
</trkpt>
<trkpt lat="35.871673" lon="139.719917">
<ele>2.0</ele>
<time>2026-04-02T22:36:29Z</time>
<speed>4.0</speed>
</trkpt>
<trkpt lat="35.871884" lon="139.720080">
<ele>2.0</ele>
<time>2026-04-02T22:36:36Z</time>
<speed>4.3</speed>
</trkpt>
<trkpt lat="35.872079" lon="139.720239">
<ele>2.0</ele>
<time>2026-04-02T22:36:42Z</time>
<speed>0.7</speed>
</trkpt>
<trkpt lat="35.872097" lon="139.720250">
<ele>2.0</ele>
<time>2026-04-02T22:36:45Z</time>
<speed>0.8</speed>
</trkpt>
<trkpt lat="35.872077" lon="139.720244">
<ele>2.0</ele>
<time>2026-04-02T22:36:48Z</time>
<speed>1.2</speed>
</trkpt>
<trkpt lat="35.872059" lon="139.720230">
<ele>2.0</ele>
<time>2026-04-02T22:36:50Z</time>
<speed>0.6</speed>
</trkpt>
<trkpt lat="35.872073" lon="139.720219">
<ele>2.0</ele>
<time>2026-04-02T22:36:53Z</time>
<speed>0.7</speed>
</trkpt>
<trkpt lat="35.872078" lon="139.720224">
<ele>2.0</ele>
<time>2026-04-02T22:36:54Z</time>
<speed>0.1</speed>
</trkpt>
<trkpt lat="35.872103" lon="139.720246">
<ele>1.6</ele>
<time>2026-04-02T22:37:34Z</time>
<speed>1.8</speed>
</trkpt>
<trkpt lat="35.872115" lon="139.720259">
<ele>1.6</ele>
<time>2026-04-02T22:37:35Z</time>
<speed>2.4</speed>
</trkpt>
<trkpt lat="35.872134" lon="139.720272">
<ele>1.6</ele>
<time>2026-04-02T22:37:36Z</time>
<speed>3.1</speed>
</trkpt>
<trkpt lat="35.872205" lon="139.720328">
<ele>1.6</ele>
<time>2026-04-02T22:37:39Z</time>
<speed>4.1</speed>
</trkpt>
<trkpt lat="35.872298" lon="139.720400">
<ele>1.6</ele>
<time>2026-04-02T22:37:42Z</time>
<speed>4.1</speed>
</trkpt>
<trkpt lat="35.872562" lon="139.720565">
<ele>1.8</ele>
<time>2026-04-02T22:37:50Z</time>
<speed>4.6</speed>
</trkpt>
<trkpt lat="35.872763" lon="139.720636">
<ele>2.0</ele>
<time>2026-04-02T22:37:55Z</time>
<speed>4.8</speed>
</trkpt>
<trkpt lat="35.872848" lon="139.720652">
<ele>2.0</ele>
<time>2026-04-02T22:37:57Z</time>
<speed>4.6</speed>
</trkpt>
<trkpt lat="35.873201" lon="139.720640">
<ele>2.0</ele>
<time>2026-04-02T22:38:05Z</time>
<speed>4.6</speed>
</trkpt>
<trkpt lat="35.873475" lon="139.720594">
<ele>2.2</ele>
<time>2026-04-02T22:38:12Z</time>
<speed>4.6</speed>
</trkpt>
<trkpt lat="35.873759" lon="139.720532">
<ele>2.4</ele>
<time>2026-04-02T22:38:18Z</time>
<speed>4.6</speed>
</trkpt>
<trkpt lat="35.874118" lon="139.720455">
<ele>2.4</ele>
<time>2026-04-02T22:38:26Z</time>
<speed>4.5</speed>
</trkpt>
<trkpt lat="35.874416" lon="139.720377">
<ele>2.4</ele>
<time>2026-04-02T22:38:35Z</time>
<speed>4.6</speed>
</trkpt>
<trkpt lat="35.874703" lon="139.720240">
<ele>2.2</ele>
<time>2026-04-02T22:38:42Z</time>
<speed>4.8</speed>
</trkpt>
<trkpt lat="35.875044" lon="139.720025">
<ele>2.0</ele>
<time>2026-04-02T22:38:51Z</time>
<speed>4.7</speed>
</trkpt>
<trkpt lat="35.875300" lon="139.719819">
<ele>2.0</ele>
<time>2026-04-02T22:38:57Z</time>
<speed>4.8</speed>
</trkpt>
<trkpt lat="35.875502" lon="139.719636">
<ele>2.0</ele>
<time>2026-04-02T22:39:04Z</time>
<speed>4.8</speed>
</trkpt>
<trkpt lat="35.875796" lon="139.719336">
<ele>2.0</ele>
<time>2026-04-02T22:39:12Z</time>
<speed>4.1</speed>
</trkpt>
<trkpt lat="35.875961" lon="139.719156">
<ele>2.0</ele>
<time>2026-04-02T22:39:19Z</time>
<speed>4.3</speed>
</trkpt>
<trkpt lat="35.876181" lon="139.718926">
<ele>1.8</ele>
<time>2026-04-02T22:39:25Z</time>
<speed>4.6</speed>
</trkpt>
<trkpt lat="35.876361" lon="139.718719">
<ele>1.8</ele>
<time>2026-04-02T22:39:30Z</time>
<speed>4.7</speed>
</trkpt>
<trkpt lat="35.876550" lon="139.718513">
<ele>1.6</ele>
<time>2026-04-02T22:39:38Z</time>
<speed>4.3</speed>
</trkpt>
<trkpt lat="35.876763" lon="139.718269">
<ele>1.8</ele>
<time>2026-04-02T22:39:46Z</time>
<speed>4.4</speed>
</trkpt>
<trkpt lat="35.876946" lon="139.718083">
<ele>1.8</ele>
<time>2026-04-02T22:39:53Z</time>
<speed>4.5</speed>
</trkpt>
<trkpt lat="35.877174" lon="139.717815">
<ele>1.8</ele>
<time>2026-04-02T22:40:02Z</time>
<speed>4.2</speed>
</trkpt>
<trkpt lat="35.877335" lon="139.717627">
<ele>1.8</ele>
<time>2026-04-02T22:40:08Z</time>
<speed>2.5</speed>
</trkpt>
<trkpt lat="35.877435" lon="139.717499">
<ele>1.6</ele>
<time>2026-04-02T22:40:13Z</time>
<speed>1.1</speed>
</trkpt>
<trkpt lat="35.877491" lon="139.717546">
<ele>1.6</ele>
<time>2026-04-02T22:40:15Z</time>
<speed>1.9</speed>
</trkpt>
<trkpt lat="35.877520" lon="139.717569">
<ele>1.6</ele>
<time>2026-04-02T22:40:17Z</time>
<speed>1.9</speed>
</trkpt>
<trkpt lat="35.877581" lon="139.717531">
<ele>1.4</ele>
<time>2026-04-02T22:40:21Z</time>
<speed>2.8</speed>
</trkpt>
<trkpt lat="35.877612" lon="139.717482">
<ele>1.0</ele>
<time>2026-04-02T22:40:23Z</time>
<speed>2.6</speed>
</trkpt>
<trkpt lat="35.877630" lon="139.717463">
<ele>1.0</ele>
<time>2026-04-02T22:40:24Z</time>
<speed>3.1</speed>
</trkpt>
<trkpt lat="35.877671" lon="139.717416">
<ele>0.8</ele>
<time>2026-04-02T22:40:26Z</time>
<speed>3.2</speed>
</trkpt>
<trkpt lat="35.877763" lon="139.717328">
<ele>0.6</ele>
<time>2026-04-02T22:40:30Z</time>
<speed>3.2</speed>
</trkpt>
<trkpt lat="35.877809" lon="139.717286">
<ele>0.6</ele>
<time>2026-04-02T22:40:32Z</time>
<speed>4.0</speed>
</trkpt>
<trkpt lat="35.878015" lon="139.717110">
<ele>0.0</ele>
<time>2026-04-02T22:40:39Z</time>
<speed>3.4</speed>
</trkpt>
<trkpt lat="35.878065" lon="139.717065">
<ele>0.0</ele>
<time>2026-04-02T22:40:41Z</time>
<speed>4.2</speed>
</trkpt>
<trkpt lat="35.878101" lon="139.717050">
<ele>-0.2</ele>
<time>2026-04-02T22:40:42Z</time>
<speed>4.1</speed>
</trkpt>
<trkpt lat="35.878174" lon="139.717057">
<ele>-0.2</ele>
<time>2026-04-02T22:40:44Z</time>
<speed>4.4</speed>
</trkpt>
<trkpt lat="35.878306" lon="139.717161">
<ele>-0.6</ele>
<time>2026-04-02T22:40:48Z</time>
<speed>4.5</speed>
</trkpt>
<trkpt lat="35.878373" lon="139.717174">
<ele>-0.8</ele>
<time>2026-04-02T22:40:49Z</time>
<speed>4.6</speed>
</trkpt>
<trkpt lat="35.878439" lon="139.717327">
<ele>-0.8</ele>
<time>2026-04-02T22:40:52Z</time>
<speed>4.5</speed>
</trkpt>
<trkpt lat="35.878557" lon="139.717614">
<ele>-0.8</ele>
<time>2026-04-02T22:40:59Z</time>
<speed>4.7</speed>
</trkpt>
<trkpt lat="35.878739" lon="139.718027">
<ele>-0.6</ele>
<time>2026-04-02T22:41:08Z</time>
<speed>4.8</speed>
</trkpt>
<trkpt lat="35.878847" lon="139.718269">
<ele>-0.6</ele>
<time>2026-04-02T22:41:14Z</time>
<speed>4.7</speed>
</trkpt>
<trkpt lat="35.878895" lon="139.718389">
<ele>-0.4</ele>
<time>2026-04-02T22:41:16Z</time>
<speed>4.8</speed>
</trkpt>
<trkpt lat="35.878958" lon="139.718529">
<ele>-0.4</ele>
<time>2026-04-02T22:41:19Z</time>
<speed>4.2</speed>
</trkpt>
<trkpt lat="35.879034" lon="139.718690">
<ele>-0.2</ele>
<time>2026-04-02T22:41:23Z</time>
<speed>3.0</speed>
</trkpt>
<trkpt lat="35.879084" lon="139.718797">
<ele>0.0</ele>
<time>2026-04-02T22:41:27Z</time>
<speed>2.8</speed>
</trkpt>
<trkpt lat="35.879122" lon="139.718856">
<ele>0.2</ele>
<time>2026-04-02T22:41:29Z</time>
<speed>1.1</speed>
</trkpt>
<trkpt lat="35.879144" lon="139.718899">
<ele>0.2</ele>
<time>2026-04-02T22:41:33Z</time>
<speed>1.3</speed>
</trkpt>
<trkpt lat="35.879165" lon="139.718949">
<ele>0.6</ele>
<time>2026-04-02T22:41:37Z</time>
<speed>2.9</speed>
</trkpt>
<trkpt lat="35.879119" lon="139.719001">
<ele>1.0</ele>
<time>2026-04-02T22:41:39Z</time>
<speed>4.3</speed>
</trkpt>
<trkpt lat="35.879030" lon="139.719108">
<ele>1.2</ele>
<time>2026-04-02T22:41:42Z</time>
<speed>4.6</speed>
</trkpt>
<trkpt lat="35.878958" lon="139.719189">
<ele>1.2</ele>
<time>2026-04-02T22:41:43Z</time>
<speed>4.8</speed>
</trkpt>
<trkpt lat="35.878775" lon="139.719502">
<ele>1.6</ele>
<time>2026-04-02T22:41:51Z</time>
<speed>5.3</speed>
</trkpt>
<trkpt lat="35.878606" lon="139.719757">
<ele>1.8</ele>
<time>2026-04-02T22:41:57Z</time>
<speed>5.3</speed>
</trkpt>
<trkpt lat="35.878495" lon="139.719937">
<ele>1.8</ele>
<time>2026-04-02T22:42:00Z</time>
<speed>5.5</speed>
</trkpt>
<trkpt lat="35.878247" lon="139.720345">
<ele>1.8</ele>
<time>2026-04-02T22:42:09Z</time>
<speed>5.6</speed>
</trkpt>
<trkpt lat="35.878095" lon="139.720540">
<ele>1.6</ele>
<time>2026-04-02T22:42:17Z</time>
<speed>5.1</speed>
</trkpt>
<trkpt lat="35.877915" lon="139.720736">
<ele>1.6</ele>
<time>2026-04-02T22:42:22Z</time>
<speed>4.8</speed>
</trkpt>
<trkpt lat="35.877671" lon="139.720959">
<ele>1.6</ele>
<time>2026-04-02T22:42:24Z</time>
<speed>5.4</speed>
</trkpt>
<trkpt lat="35.877391" lon="139.721222">
<ele>1.6</ele>
<time>2026-04-02T22:42:31Z</time>
<speed>5.6</speed>
</trkpt>
<trkpt lat="35.877026" lon="139.721568">
<ele>1.6</ele>
<time>2026-04-02T22:42:41Z</time>
<speed>5.5</speed>
</trkpt>
<trkpt lat="35.876761" lon="139.721804">
<ele>1.6</ele>
<time>2026-04-02T22:42:51Z</time>
<speed>5.3</speed>
</trkpt>
<trkpt lat="35.876491" lon="139.722155">
<ele>1.8</ele>
<time>2026-04-02T22:42:59Z</time>
<speed>4.8</speed>
</trkpt>
<trkpt lat="35.876400" lon="139.722300">
<ele>1.8</ele>
<time>2026-04-02T22:43:01Z</time>
<speed>4.7</speed>
</trkpt>
<trkpt lat="35.876359" lon="139.722477">
<ele>1.8</ele>
<time>2026-04-02T22:43:04Z</time>
<speed>5.1</speed>
</trkpt>
<trkpt lat="35.876367" lon="139.722649">
<ele>1.8</ele>
<time>2026-04-02T22:43:08Z</time>
<speed>5.2</speed>
</trkpt>
<trkpt lat="35.876470" lon="139.722879">
<ele>1.6</ele>
<time>2026-04-02T22:43:09Z</time>
<speed>5.1</speed>
</trkpt>
<trkpt lat="35.876602" lon="139.723193">
<ele>1.6</ele>
<time>2026-04-02T22:43:15Z</time>
<speed>5.0</speed>
</trkpt>
<trkpt lat="35.876711" lon="139.723456">
<ele>1.6</ele>
<time>2026-04-02T22:43:22Z</time>
<speed>5.4</speed>
</trkpt>
<trkpt lat="35.876809" lon="139.723783">
<ele>1.6</ele>
<time>2026-04-02T22:43:28Z</time>
<speed>5.2</speed>
</trkpt>
<trkpt lat="35.876917" lon="139.724167">
<ele>1.4</ele>
<time>2026-04-02T22:43:35Z</time>
<speed>4.9</speed>
</trkpt>
<trkpt lat="35.877026" lon="139.724558">
<ele>1.4</ele>
<time>2026-04-02T22:43:43Z</time>
<speed>4.7</speed>
</trkpt>
<trkpt lat="35.877009" lon="139.724660">
<ele>1.2</ele>
<time>2026-04-02T22:43:44Z</time>
<speed>4.9</speed>
</trkpt>
<trkpt lat="35.876943" lon="139.724757">
<ele>1.2</ele>
<time>2026-04-02T22:43:47Z</time>
<speed>5.3</speed>
</trkpt>
<trkpt lat="35.876837" lon="139.724792">
<ele>1.2</ele>
<time>2026-04-02T22:43:50Z</time>
<speed>5.3</speed>
</trkpt>
<trkpt lat="35.876717" lon="139.724848">
<ele>1.2</ele>
<time>2026-04-02T22:43:51Z</time>
<speed>5.3</speed>
</trkpt>
<trkpt lat="35.876485" lon="139.724993">
<ele>1.4</ele>
<time>2026-04-02T22:43:57Z</time>
<speed>5.3</speed>
</trkpt>
<trkpt lat="35.876191" lon="139.725143">
<ele>1.2</ele>
<time>2026-04-02T22:44:04Z</time>
<speed>5.0</speed>
</trkpt>
<trkpt lat="35.876037" lon="139.725221">
<ele>1.2</ele>
<time>2026-04-02T22:44:05Z</time>
<speed>5.3</speed>
</trkpt>
<trkpt lat="35.875815" lon="139.725336">
<ele>1.0</ele>
<time>2026-04-02T22:44:12Z</time>
<speed>4.9</speed>
</trkpt>
<trkpt lat="35.875576" lon="139.725449">
<ele>1.0</ele>
<time>2026-04-02T22:44:18Z</time>
<speed>3.4</speed>
</trkpt>
<trkpt lat="35.875435" lon="139.725478">
<ele>1.0</ele>
<time>2026-04-02T22:44:23Z</time>
<speed>4.3</speed>
</trkpt>
<trkpt lat="35.875321" lon="139.725471">
<ele>1.2</ele>
<time>2026-04-02T22:44:27Z</time>
<speed>5.2</speed>
</trkpt>
<trkpt lat="35.875094" lon="139.725401">
<ele>1.4</ele>
<time>2026-04-02T22:44:32Z</time>
<speed>5.2</speed>
</trkpt>
<trkpt lat="35.874779" lon="139.725336">
<ele>1.4</ele>
<time>2026-04-02T22:44:39Z</time>
<speed>5.3</speed>
</trkpt>
<trkpt lat="35.874527" lon="139.725341">
<ele>1.4</ele>
<time>2026-04-02T22:44:47Z</time>
<speed>5.3</speed>
</trkpt>
<trkpt lat="35.874072" lon="139.725406">
<ele>1.4</ele>
<time>2026-04-02T22:44:57Z</time>
<speed>5.4</speed>
</trkpt>
<trkpt lat="35.873479" lon="139.725545">
<ele>1.4</ele>
<time>2026-04-02T22:45:04Z</time>
<speed>5.3</speed>
</trkpt>
<trkpt lat="35.873236" lon="139.725583">
<ele>1.6</ele>
<time>2026-04-02T22:45:11Z</time>
<speed>5.3</speed>
</trkpt>
<trkpt lat="35.873046" lon="139.725586">
<ele>1.8</ele>
<time>2026-04-02T22:45:18Z</time>
<speed>5.2</speed>
</trkpt>
<trkpt lat="35.872775" lon="139.725521">
<ele>2.0</ele>
<time>2026-04-02T22:45:21Z</time>
<speed>5.4</speed>
</trkpt>
<trkpt lat="35.872638" lon="139.725458">
<ele>2.0</ele>
<time>2026-04-02T22:45:24Z</time>
<speed>5.1</speed>
</trkpt>
<trkpt lat="35.872331" lon="139.725291">
<ele>1.8</ele>
<time>2026-04-02T22:45:31Z</time>
<speed>4.8</speed>
</trkpt>
<trkpt lat="35.872221" lon="139.725197">
<ele>1.6</ele>
<time>2026-04-02T22:45:32Z</time>
<speed>5.2</speed>
</trkpt>
<trkpt lat="35.872068" lon="139.725017">
<ele>1.4</ele>
<time>2026-04-02T22:45:38Z</time>
<speed>5.2</speed>
</trkpt>
<trkpt lat="35.871992" lon="139.724910">
<ele>1.4</ele>
<time>2026-04-02T22:45:40Z</time>
<speed>5.2</speed>
</trkpt>
<trkpt lat="35.871823" lon="139.724671">
<ele>1.4</ele>
<time>2026-04-02T22:45:44Z</time>
<speed>4.5</speed>
</trkpt>
<trkpt lat="35.871760" lon="139.724553">
<ele>1.4</ele>
<time>2026-04-02T22:45:49Z</time>
<speed>5.2</speed>
</trkpt>
<trkpt lat="35.871753" lon="139.724438">
<ele>1.6</ele>
<time>2026-04-02T22:45:53Z</time>
<speed>5.1</speed>
</trkpt>
<trkpt lat="35.871877" lon="139.724019">
<ele>1.6</ele>
<time>2026-04-02T22:45:54Z</time>
<speed>5.1</speed>
</trkpt>
<trkpt lat="35.871966" lon="139.723729">
<ele>2.0</ele>
<time>2026-04-02T22:46:01Z</time>
<speed>5.1</speed>
</trkpt>
<trkpt lat="35.872092" lon="139.723367">
<ele>2.0</ele>
<time>2026-04-02T22:46:09Z</time>
<speed>5.2</speed>
</trkpt>
<trkpt lat="35.872168" lon="139.723225">
<ele>1.8</ele>
<time>2026-04-02T22:46:13Z</time>
<speed>5.3</speed>
</trkpt>
<trkpt lat="35.872272" lon="139.723140">
<ele>1.6</ele>
<time>2026-04-02T22:46:16Z</time>
<speed>5.3</speed>
</trkpt>
<trkpt lat="35.872394" lon="139.723011">
<ele>1.6</ele>
<time>2026-04-02T22:46:18Z</time>
<speed>5.4</speed>
</trkpt>
<trkpt lat="35.872579" lon="139.722836">
<ele>1.6</ele>
<time>2026-04-02T22:46:22Z</time>
<speed>5.3</speed>
</trkpt>
<trkpt lat="35.872712" lon="139.722598">
<ele>1.8</ele>
<time>2026-04-02T22:46:30Z</time>
<speed>5.5</speed>
</trkpt>
<trkpt lat="35.872760" lon="139.722431">
<ele>2.0</ele>
<time>2026-04-02T22:46:33Z</time>
<speed>5.5</speed>
</trkpt>
<trkpt lat="35.872792" lon="139.722225">
<ele>2.0</ele>
<time>2026-04-02T22:46:36Z</time>
<speed>5.6</speed>
</trkpt>
<trkpt lat="35.872788" lon="139.721940">
<ele>2.0</ele>
<time>2026-04-02T22:46:40Z</time>
<speed>5.8</speed>
</trkpt>
<trkpt lat="35.872773" lon="139.721852">
<ele>2.0</ele>
<time>2026-04-02T22:46:42Z</time>
<speed>5.7</speed>
</trkpt>
<trkpt lat="35.872749" lon="139.721782">
<ele>2.0</ele>
<time>2026-04-02T22:46:43Z</time>
<speed>5.7</speed>
</trkpt>
<trkpt lat="35.872648" lon="139.721564">
<ele>2.0</ele>
<time>2026-04-02T22:46:47Z</time>
<speed>5.7</speed>
</trkpt>
<trkpt lat="35.872308" lon="139.721093">
<ele>1.4</ele>
<time>2026-04-02T22:46:54Z</time>
<speed>5.6</speed>
</trkpt>
<trkpt lat="35.872110" lon="139.720894">
<ele>1.2</ele>
<time>2026-04-02T22:47:02Z</time>
<speed>5.6</speed>
</trkpt>
<trkpt lat="35.871660" lon="139.720500">
<ele>1.0</ele>
<time>2026-04-02T22:47:13Z</time>
<speed>5.4</speed>
</trkpt>
<trkpt lat="35.871316" lon="139.720256">
<ele>1.0</ele>
<time>2026-04-02T22:47:21Z</time>
<speed>5.6</speed>
</trkpt>
<trkpt lat="35.871114" lon="139.720194">
<ele>1.0</ele>
<time>2026-04-02T22:47:23Z</time>
<speed>5.8</speed>
</trkpt>
<trkpt lat="35.870919" lon="139.720165">
<ele>0.6</ele>
<time>2026-04-02T22:47:27Z</time>
<speed>5.1</speed>
</trkpt>
<trkpt lat="35.870660" lon="139.720127">
<ele>0.4</ele>
<time>2026-04-02T22:47:34Z</time>
<speed>4.7</speed>
</trkpt>
<trkpt lat="35.870436" lon="139.720079">
<ele>0.4</ele>
<time>2026-04-02T22:47:40Z</time>
<speed>2.5</speed>
</trkpt>
<trkpt lat="35.870332" lon="139.720066">
<ele>0.4</ele>
<time>2026-04-02T22:47:43Z</time>
<speed>2.7</speed>
</trkpt>
<trkpt lat="35.870238" lon="139.720066">
<ele>0.4</ele>
<time>2026-04-02T22:47:45Z</time>
<speed>4.2</speed>
</trkpt>
<trkpt lat="35.870162" lon="139.720071">
<ele>0.2</ele>
<time>2026-04-02T22:47:49Z</time>
<speed>4.5</speed>
</trkpt>
<trkpt lat="35.870034" lon="139.720098">
<ele>-0.2</ele>
<time>2026-04-02T22:47:51Z</time>
<speed>4.7</speed>
</trkpt>
<trkpt lat="35.869867" lon="139.720117">
<ele>-0.2</ele>
<time>2026-04-02T22:47:56Z</time>
<speed>4.8</speed>
</trkpt>
<trkpt lat="35.869588" lon="139.720114">
<ele>0.8</ele>
<time>2026-04-02T22:48:03Z</time>
<speed>4.8</speed>
</trkpt>
<trkpt lat="35.869456" lon="139.720106">
<ele>1.0</ele>
<time>2026-04-02T22:48:05Z</time>
<speed>5.2</speed>
</trkpt>
<trkpt lat="35.869334" lon="139.720087">
<ele>1.2</ele>
<time>2026-04-02T22:48:09Z</time>
<speed>4.7</speed>
</trkpt>
<trkpt lat="35.869189" lon="139.720053">
<ele>1.2</ele>
<time>2026-04-02T22:48:12Z</time>
<speed>5.1</speed>
</trkpt>
<trkpt lat="35.869063" lon="139.719982">
<ele>1.4</ele>
<time>2026-04-02T22:48:15Z</time>
<speed>5.3</speed>
</trkpt>
<trkpt lat="35.868852" lon="139.719784">
<ele>1.4</ele>
<time>2026-04-02T22:48:22Z</time>
<speed>5.4</speed>
</trkpt>
<trkpt lat="35.868669" lon="139.719540">
<ele>1.6</ele>
<time>2026-04-02T22:48:30Z</time>
<speed>5.5</speed>
</trkpt>
<trkpt lat="35.868493" lon="139.719154">
<ele>1.8</ele>
<time>2026-04-02T22:48:38Z</time>
<speed>5.4</speed>
</trkpt>
<trkpt lat="35.868242" lon="139.718321">
<ele>1.6</ele>
<time>2026-04-02T22:48:48Z</time>
<speed>5.5</speed>
</trkpt>
<trkpt lat="35.868039" lon="139.717907">
<ele>1.6</ele>
<time>2026-04-02T22:48:56Z</time>
<speed>5.4</speed>
</trkpt>
<trkpt lat="35.867772" lon="139.717560">
<ele>1.4</ele>
<time>2026-04-02T22:49:04Z</time>
<speed>5.5</speed>
</trkpt>
<trkpt lat="35.867622" lon="139.717399">
<ele>1.4</ele>
<time>2026-04-02T22:49:08Z</time>
<speed>5.3</speed>
</trkpt>
<trkpt lat="35.867506" lon="139.717298">
<ele>1.2</ele>
<time>2026-04-02T22:49:11Z</time>
<speed>5.5</speed>
</trkpt>
<trkpt lat="35.867298" lon="139.717196">
<ele>1.2</ele>
<time>2026-04-02T22:49:17Z</time>
<speed>5.1</speed>
</trkpt>
<trkpt lat="35.867152" lon="139.717169">
<ele>1.2</ele>
<time>2026-04-02T22:49:18Z</time>
<speed>5.3</speed>
</trkpt>
<trkpt lat="35.866891" lon="139.717139">
<ele>1.2</ele>
<time>2026-04-02T22:49:24Z</time>
<speed>5.4</speed>
</trkpt>
<trkpt lat="35.866413" lon="139.717091">
<ele>1.4</ele>
<time>2026-04-02T22:49:34Z</time>
<speed>5.6</speed>
</trkpt>
<trkpt lat="35.865865" lon="139.717126">
<ele>1.2</ele>
<time>2026-04-02T22:49:45Z</time>
<speed>5.5</speed>
</trkpt>
<trkpt lat="35.865639" lon="139.717150">
<ele>1.2</ele>
<time>2026-04-02T22:49:54Z</time>
<speed>5.5</speed>
</trkpt>
<trkpt lat="35.865313" lon="139.717265">
<ele>1.2</ele>
<time>2026-04-02T22:50:02Z</time>
<speed>5.5</speed>
</trkpt>
<trkpt lat="35.864628" lon="139.717593">
<ele>1.4</ele>
<time>2026-04-02T22:50:12Z</time>
<speed>5.3</speed>
</trkpt>
<trkpt lat="35.864339" lon="139.717708">
<ele>1.6</ele>
<time>2026-04-02T22:50:17Z</time>
<speed>5.0</speed>
</trkpt>
<trkpt lat="35.863976" lon="139.717917">
<ele>1.6</ele>
<time>2026-04-02T22:50:26Z</time>
<speed>4.4</speed>
</trkpt>
<trkpt lat="35.863678" lon="139.718089">
<ele>1.4</ele>
<time>2026-04-02T22:50:34Z</time>
<speed>3.0</speed>
</trkpt>
<trkpt lat="35.863576" lon="139.718172">
<ele>1.2</ele>
<time>2026-04-02T22:50:40Z</time>
<speed>3.6</speed>
</trkpt>
<trkpt lat="35.863507" lon="139.718169">
<ele>1.2</ele>
<time>2026-04-02T22:50:44Z</time>
<speed>4.2</speed>
</trkpt>
<trkpt lat="35.863453" lon="139.717932">
<ele>1.2</ele>
<time>2026-04-02T22:50:45Z</time>
<speed>3.1</speed>
</trkpt>
<trkpt lat="35.863437" lon="139.717806">
<ele>1.2</ele>
<time>2026-04-02T22:50:50Z</time>
<speed>0.1</speed>
</trkpt>
<trkpt lat="35.863426" lon="139.717672">
<ele>1.0</ele>
<time>2026-04-02T22:51:37Z</time>
<speed>2.3</speed>
</trkpt>
<trkpt lat="35.863393" lon="139.717492">
<ele>1.0</ele>
<time>2026-04-02T22:51:43Z</time>
<speed>3.7</speed>
</trkpt>
<trkpt lat="35.863360" lon="139.717285">
<ele>1.0</ele>
<time>2026-04-02T22:51:49Z</time>
<speed>3.9</speed>
</trkpt>
<trkpt lat="35.863324" lon="139.717001">
<ele>0.8</ele>
<time>2026-04-02T22:51:57Z</time>
<speed>3.7</speed>
</trkpt>
<trkpt lat="35.863284" lon="139.716797">
<ele>0.8</ele>
<time>2026-04-02T22:52:02Z</time>
<speed>4.3</speed>
</trkpt>
<trkpt lat="35.863252" lon="139.716648">
<ele>0.8</ele>
<time>2026-04-02T22:52:04Z</time>
<speed>4.3</speed>
</trkpt>
<trkpt lat="35.863221" lon="139.716445">
<ele>0.8</ele>
<time>2026-04-02T22:52:07Z</time>
<speed>4.5</speed>
</trkpt>
<trkpt lat="35.863181" lon="139.716202">
<ele>0.8</ele>
<time>2026-04-02T22:52:12Z</time>
<speed>4.1</speed>
</trkpt>
<trkpt lat="35.863134" lon="139.715940">
<ele>0.6</ele>
<time>2026-04-02T22:52:19Z</time>
<speed>3.0</speed>
</trkpt>
<trkpt lat="35.863110" lon="139.715762">
<ele>0.4</ele>
<time>2026-04-02T22:52:25Z</time>
<speed>2.5</speed>
</trkpt>
<trkpt lat="35.863135" lon="139.715741">
<ele>0.4</ele>
<time>2026-04-02T22:52:27Z</time>
<speed>2.7</speed>
</trkpt>
<trkpt lat="35.863144" lon="139.715714">
<ele>0.2</ele>
<time>2026-04-02T22:52:30Z</time>
<speed>0.9</speed>
</trkpt>
<trkpt lat="35.863130" lon="139.715659">
<ele>0.2</ele>
<time>2026-04-02T22:52:31Z</time>
<speed>0.9</speed>
</trkpt>
<trkpt lat="35.863139" lon="139.715710">
<ele>0.0</ele>
<time>2026-04-02T22:52:32Z</time>
<speed>0.9</speed>
</trkpt>
<trkpt lat="35.863136" lon="139.715694">
<ele>-0.4</ele>
<time>2026-04-02T22:52:36Z</time>
<speed>0.1</speed>
</trkpt>
<trkpt lat="35.863132" lon="139.715664">
<ele>-0.4</ele>
<time>2026-04-02T22:53:14Z</time>
<speed>2.4</speed>
</trkpt>
<trkpt lat="35.863144" lon="139.715715">
<ele>-0.4</ele>
<time>2026-04-02T22:53:16Z</time>
<speed>1.7</speed>
</trkpt>
<trkpt lat="35.863183" lon="139.715731">
<ele>-0.4</ele>
<time>2026-04-02T22:53:18Z</time>
<speed>1.6</speed>
</trkpt>
<trkpt lat="35.863225" lon="139.715738">
<ele>-0.4</ele>
<time>2026-04-02T22:53:20Z</time>
<speed>0.5</speed>
</trkpt>
<trkpt lat="35.863219" lon="139.715659">
<ele>-0.2</ele>
<time>2026-04-02T22:53:36Z</time>
<speed>3.5</speed>
</trkpt>
<trkpt lat="35.863207" lon="139.715450">
<ele>-0.2</ele>
<time>2026-04-02T22:53:42Z</time>
<speed>3.8</speed>
</trkpt>
<trkpt lat="35.863199" lon="139.715400">
<ele>-0.2</ele>
<time>2026-04-02T22:53:43Z</time>
<speed>3.9</speed>
</trkpt>
<trkpt lat="35.863109" lon="139.715106">
<ele>-0.2</ele>
<time>2026-04-02T22:53:50Z</time>
<speed>3.6</speed>
</trkpt>
<trkpt lat="35.863058" lon="139.714877">
<ele>0.0</ele>
<time>2026-04-02T22:53:57Z</time>
<speed>0.1</speed>
</trkpt>
<trkpt lat="35.863050" lon="139.714790">
<ele>-0.4</ele>
<time>2026-04-02T22:55:56Z</time>
<speed>2.3</speed>
</trkpt>
<trkpt lat="35.863027" lon="139.714685">
<ele>-0.4</ele>
<time>2026-04-02T22:55:57Z</time>
<speed>2.8</speed>
</trkpt>
<trkpt lat="35.863012" lon="139.714627">
<ele>-0.4</ele>
<time>2026-04-02T22:55:59Z</time>
<speed>3.6</speed>
</trkpt>
<trkpt lat="35.862997" lon="139.714564">
<ele>-0.4</ele>
<time>2026-04-02T22:56:00Z</time>
<speed>4.1</speed>
</trkpt>
<trkpt lat="35.862980" lon="139.714492">
<ele>-0.4</ele>
<time>2026-04-02T22:56:02Z</time>
<speed>4.1</speed>
</trkpt>
<trkpt lat="35.862959" lon="139.714410">
<ele>-0.4</ele>
<time>2026-04-02T22:56:03Z</time>
<speed>4.2</speed>
</trkpt>
<trkpt lat="35.862932" lon="139.714285">
<ele>-0.2</ele>
<time>2026-04-02T22:56:05Z</time>
<speed>4.2</speed>
</trkpt>
<trkpt lat="35.862903" lon="139.714139">
<ele>-0.2</ele>
<time>2026-04-02T22:56:08Z</time>
<speed>3.3</speed>
</trkpt>
<trkpt lat="35.862881" lon="139.714005">
<ele>0.0</ele>
<time>2026-04-02T22:56:13Z</time>
<speed>2.2</speed>
</trkpt>
<trkpt lat="35.862839" lon="139.714000">
<ele>0.0</ele>
<time>2026-04-02T22:56:17Z</time>
<speed>3.3</speed>
</trkpt>
<trkpt lat="35.862736" lon="139.714001">
<ele>0.0</ele>
<time>2026-04-02T22:56:20Z</time>
<speed>4.1</speed>
</trkpt>
<trkpt lat="35.862608" lon="139.714001">
<ele>0.0</ele>
<time>2026-04-02T22:56:23Z</time>
<speed>4.6</speed>
</trkpt>
<trkpt lat="35.862477" lon="139.714004">
<ele>0.0</ele>
<time>2026-04-02T22:56:27Z</time>
<speed>3.7</speed>
</trkpt>
<trkpt lat="35.862407" lon="139.713996">
<ele>0.2</ele>
<time>2026-04-02T22:56:28Z</time>
<speed>2.7</speed>
</trkpt>
<trkpt lat="35.862298" lon="139.713990">
<ele>0.4</ele>
<time>2026-04-02T22:56:33Z</time>
<speed>2.9</speed>
</trkpt>
<trkpt lat="35.862296" lon="139.713868">
<ele>1.0</ele>
<time>2026-04-02T22:56:36Z</time>
<speed>2.9</speed>
</trkpt>
<trkpt lat="35.862295" lon="139.713844">
<ele>1.2</ele>
<time>2026-04-02T22:56:37Z</time>
<speed>2.1</speed>
</trkpt>
<trkpt lat="35.862295" lon="139.713791">
<ele>2.0</ele>
<time>2026-04-02T22:56:40Z</time>
<speed>0.2</speed>
</trkpt>
<trkpt lat="35.862294" lon="139.713783">
<ele>2.4</ele>
<time>2026-04-02T22:56:42Z</time>
<speed>0.2</speed>
</trkpt>
</trkseg>
</trk>
</gpx>
